2016 Cux-Wetter.de -Die Nutzung der Wetterdaten nur mit ausdrcklicher Genehmigung
Wetterdaten: Samstag, 11.11.2017
Datum Zeit Temp. A. Feuchte A. Luftdruck Regen Wind Richtung Richtung Sonnenschein Solar Taupunkt Windchill Windben
11.11.2017 00:00 7,4 C 75 % 1005,0 hPa 0,0 l/m 12,9 km/h (3 Bft) W 269 0 min 0 W/m 3,3 C 3,0 C 25,7 km/h (4 Bft)
11.11.2017 00:03 7,5 C 75 % 1005,0 hPa 0,0 l/m 15,1 km/h (3 Bft) W 275 0 min 0 W/m 3,4 C 2,1 C 27,4 km/h (5 Bft)
11.11.2017 00:06 7,5 C 75 % 1005,0 hPa 0,0 l/m 15,1 km/h (3 Bft) W-NW 284 0 min 0 W/m 3,4 C 2,1 C 25,7 km/h (4 Bft)
11.11.2017 00:09 7,5 C 75 % 1005,0 hPa 0,0 l/m 11,3 km/h (2 Bft) W-SW 240 0 min 0 W/m 3,4 C 4,0 C 24,1 km/h (4 Bft)
11.11.2017 00:12 7,6 C 76 % 1005,0 hPa 0,0 l/m 11,1 km/h (2 Bft) W-SW 246 0 min 0 W/m 3,6 C 4,3 C 19,3 km/h (3 Bft)
11.11.2017 00:15 7,6 C 76 % 1005,1 hPa 0,0 l/m 17,0 km/h (3 Bft) W 259 0 min 0 W/m 3,6 C 1,3 C 37,0 km/h (5 Bft)
11.11.2017 00:18 7,6 C 76 % 1005,1 hPa 0,0 l/m 17,8 km/h (3 Bft) W-SW 245 0 min 0 W/m 3,6 C 1,0 C 32,2 km/h (5 Bft)
11.11.2017 00:21 7,6 C 77 % 1005,0 hPa 0,0 l/m 19,4 km/h (3 Bft) W 266 0 min 0 W/m 3,8 C 0,4 C 38,6 km/h (6 Bft)
11.11.2017 00:24 7,6 C 77 % 1005,0 hPa 0,0 l/m 18,0 km/h (3 Bft) W-SW 251 0 min 0 W/m 3,8 C 0,9 C 33,8 km/h (5 Bft)
11.11.2017 00:27 7,6 C 77 % 1005,0 hPa 0,0 l/m 16,6 km/h (3 Bft) NW 311 0 min 0 W/m 3,8 C 1,5 C 27,4 km/h (5 Bft)
11.11.2017 00:30 7,4 C 77 % 1005,0 hPa 0,0 l/m 15,2 km/h (3 Bft) W 272 0 min 0 W/m 3,6 C 1,9 C 24,1 km/h (4 Bft)
11.11.2017 00:33 7,4 C 77 % 1005,0 hPa 0,0 l/m 11,8 km/h (2 Bft) W 267 0 min 0 W/m 3,6 C 3,6 C 24,1 km/h (4 Bft)
11.11.2017 00:36 7,4 C 78 % 1005,0 hPa 0,0 l/m 13,9 km/h (3 Bft) W 275 0 min 0 W/m 3,8 C 2,5 C 27,4 km/h (5 Bft)
11.11.2017 00:39 7,4 C 78 % 1005,0 hPa 0,0 l/m 13,3 km/h (3 Bft) W-SW 244 0 min 0 W/m 3,8 C 2,8 C 25,7 km/h (4 Bft)
11.11.2017 00:42 7,5 C 78 % 1005,1 hPa 0,0 l/m 17,9 km/h (3 Bft) W-NW 295 0 min 0 W/m 3,9 C 0,9 C 40,2 km/h (6 Bft)
11.11.2017 00:45 7,5 C 78 % 1005,0 hPa 0,0 l/m 20,1 km/h (4 Bft) W 281 0 min 0 W/m 3,9 C 0,0 C 32,2 km/h (5 Bft)
11.11.2017 00:48 7,5 C 77 % 1005,0 hPa 0,0 l/m 17,3 km/h (3 Bft) W 259 0 min 0 W/m 3,7 C 1,1 C 30,6 km/h (5 Bft)
11.11.2017 00:51 7,5 C 78 % 1005,1 hPa 0,0 l/m 18,8 km/h (3 Bft) SW 214 0 min 0 W/m 3,9 C 0,5 C 32,2 km/h (5 Bft)
11.11.2017 00:54 7,6 C 78 % 1005,0 hPa 0,0 l/m 19,3 km/h (3 Bft) W-SW 247 0 min 0 W/m 4,0 C 0,4 C 37,0 km/h (5 Bft)
11.11.2017 00:57 7,6 C 79 % 1004,9 hPa 0,0 l/m 15,6 km/h (3 Bft) NW 322 0 min 0 W/m 4,2 C 2,0 C 25,7 km/h (4 Bft)
11.11.2017 01:00 7,6 C 79 % 1005,0 hPa 0,0 l/m 9,8 km/h (2 Bft) W 275 0 min 0 W/m 4,2 C 5,1 C 20,9 km/h (4 Bft)
11.11.2017 01:03 7,6 C 79 % 1004,9 hPa 0,0 l/m 11,8 km/h (2 Bft) W 277 0 min 0 W/m 4,2 C 3,9 C 24,1 km/h (4 Bft)
11.11.2017 01:06 7,6 C 79 % 1004,9 hPa 0,0 l/m 12,6 km/h (3 Bft) W-SW 252 0 min 0 W/m 4,2 C 3,4 C 24,1 km/h (4 Bft)
11.11.2017 01:09 7,6 C 79 % 1005,0 hPa 0,0 l/m 13,6 km/h (3 Bft) W-SW 252 0 min 0 W/m 4,2 C 2,9 C 20,9 km/h (4 Bft)
11.11.2017 01:12 7,6 C 78 % 1005,0 hPa 0,0 l/m 18,1 km/h (3 Bft) W-SW 240 0 min 0 W/m 4,0 C 0,9 C 32,2 km/h (5 Bft)
11.11.2017 01:15 7,6 C 79 % 1005,0 hPa 0,0 l/m 18,6 km/h (3 Bft) W-NW 295 0 min 0 W/m 4,2 C 0,7 C 32,2 km/h (5 Bft)
11.11.2017 01:18 7,6 C 77 % 1004,9 hPa 0,0 l/m 17,6 km/h (3 Bft) W-NW 288 0 min 0 W/m 3,8 C 1,1 C 30,6 km/h (5 Bft)
11.11.2017 01:21 7,6 C 77 % 1005,0 hPa 0,0 l/m 14,2 km/h (3 Bft) W-SW 258 0 min 0 W/m 3,8 C 2,6 C 25,7 km/h (4 Bft)
11.11.2017 01:24 7,6 C 78 % 1005,0 hPa 0,0 l/m 10,2 km/h (2 Bft) W 277 0 min 0 W/m 4,0 C 4,8 C 24,1 km/h (4 Bft)
11.11.2017 01:27 7,6 C 78 % 1004,9 hPa 0,0 l/m 13,0 km/h (3 Bft) SW 232 0 min 0 W/m 4,0 C 3,2 C 22,5 km/h (4 Bft)
11.11.2017 01:30 7,6 C 79 % 1004,9 hPa 0,0 l/m 14,6 km/h (3 Bft) W-NW 289 0 min 0 W/m 4,2 C 2,4 C 25,7 km/h (4 Bft)
11.11.2017 01:33 7,6 C 79 % 1004,8 hPa 0,0 l/m 14,7 km/h (3 Bft) N-NO 22 0 min 0 W/m 4,2 C 2,4 C 29,0 km/h (5 Bft)
11.11.2017 01:36 7,6 C 78 % 1004,9 hPa 0,0 l/m 12,0 km/h (2 Bft) W-SW 254 0 min 0 W/m 4,0 C 3,8 C 29,0 km/h (5 Bft)
11.11.2017 01:39 7,6 C 77 % 1004,9 hPa 0,0 l/m 11,9 km/h (2 Bft) W-NW 282 0 min 0 W/m 3,8 C 3,8 C 20,9 km/h (4 Bft)
11.11.2017 01:42 7,6 C 77 % 1004,9 hPa 0,0 l/m 14,0 km/h (3 Bft) NW 311 0 min 0 W/m 3,8 C 2,7 C 25,7 km/h (4 Bft)
11.11.2017 01:45 7,6 C 77 % 1004,9 hPa 0,0 l/m 12,0 km/h (2 Bft) W-SW 240 0 min 0 W/m 3,8 C 3,8 C 29,0 km/h (5 Bft)
11.11.2017 01:48 7,6 C 76 % 1004,9 hPa 0,0 l/m 12,8 km/h (3 Bft) W 269 0 min 0 W/m 3,6 C 3,3 C 22,5 km/h (4 Bft)
11.11.2017 01:51 7,6 C 75 % 1004,8 hPa 0,0 l/m 13,4 km/h (3 Bft) W 265 0 min 0 W/m 3,5 C 3,0 C 22,5 km/h (4 Bft)
11.11.2017 01:54 7,6 C 75 % 1004,8 hPa 0,0 l/m 13,1 km/h (3 Bft) NW 323 0 min 0 W/m 3,5 C 3,2 C 22,5 km/h (4 Bft)
11.11.2017 01:57 7,6 C 75 % 1004,8 hPa 0,0 l/m 10,5 km/h (2 Bft) W-SW 250 0 min 0 W/m 3,5 C 4,6 C 22,5 km/h (4 Bft)
11.11.2017 02:00 7,6 C 75 % 1004,8 hPa 0,0 l/m 13,0 km/h (3 Bft) W-SW 258 0 min 0 W/m 3,5 C 3,2 C 24,1 km/h (4 Bft)
11.11.2017 02:03 7,7 C 75 % 1004,9 hPa 0,0 l/m 11,8 km/h (2 Bft) W-SW 256 0 min 0 W/m 3,6 C 4,0 C 24,1 km/h (4 Bft)
11.11.2017 02:06 7,7 C 76 % 1004,8 hPa 0,0 l/m 16,1 km/h (3 Bft) W 271 0 min 0 W/m 3,7 C 1,9 C 37,0 km/h (5 Bft)
11.11.2017 02:09 7,8 C 77 % 1004,8 hPa 0,0 l/m 17,5 km/h (3 Bft) W 279 0 min 0 W/m 4,0 C 1,4 C 33,8 km/h (5 Bft)
11.11.2017 02:12 7,7 C 78 % 1004,8 hPa 0,0 l/m 18,8 km/h (3 Bft) NW 309 0 min 0 W/m 4,1 C 0,8 C 43,5 km/h (6 Bft)
11.11.2017 02:15 7,6 C 77 % 1004,9 hPa 0,0 l/m 16,8 km/h (3 Bft) W 268 0 min 0 W/m 3,8 C 1,4 C 30,6 km/h (5 Bft)
11.11.2017 02:18 7,5 C 78 % 1004,8 hPa 0,0 l/m 14,2 km/h (3 Bft) W-SW 238 0 min 0 W/m 3,9 C 2,5 C 37,0 km/h (5 Bft)
11.11.2017 02:21 7,4 C 78 % 1004,8 hPa 0,0 l/m 15,0 km/h (3 Bft) W 281 0 min 0 W/m 3,8 C 2,0 C 29,0 km/h (5 Bft)
11.11.2017 02:24 7,3 C 78 % 1004,8 hPa 0,0 l/m 14,8 km/h (3 Bft) N-NW 337 0 min 0 W/m 3,7 C 2,0 C 22,5 km/h (4 Bft)
11.11.2017 02:27 7,2 C 78 % 1004,8 hPa 0,0 l/m 10,2 km/h (2 Bft) W-SW 242 0 min 0 W/m 3,6 C 4,4 C 24,1 km/h (4 Bft)
11.11.2017 02:30 7,2 C 78 % 1004,7 hPa 0,0 l/m 12,5 km/h (2 Bft) W-NW 294 0 min 0 W/m 3,6 C 3,0 C 24,1 km/h (4 Bft)
11.11.2017 02:33 7,1 C 78 % 1004,7 hPa 0,0 l/m 11,4 km/h (2 Bft) W 281 0 min 0 W/m 3,5 C 3,5 C 20,9 km/h (4 Bft)
11.11.2017 02:36 7,1 C 78 % 1004,6 hPa 0,0 l/m 13,3 km/h (3 Bft) W-NW 299 0 min 0 W/m 3,5 C 2,5 C 25,7 km/h (4 Bft)
11.11.2017 02:39 7,0 C 78 % 1004,6 hPa 0,0 l/m 13,4 km/h (3 Bft) W-NW 295 0 min 0 W/m 3,4 C 2,3 C 25,7 km/h (4 Bft)
11.11.2017 02:42 7,0 C 79 % 1004,6 hPa 0,0 l/m 9,6 km/h (2 Bft) W 269 0 min 0 W/m 3,6 C 4,5 C 17,7 km/h (3 Bft)
11.11.2017 02:45 7,0 C 79 % 1004,6 hPa 0,0 l/m 11,7 km/h (2 Bft) W 262 0 min 0 W/m 3,6 C 3,2 C 20,9 km/h (4 Bft)
11.11.2017 02:48 7,1 C 80 % 1004,5 hPa 0,0 l/m 10,9 km/h (2 Bft) W-SW 248 0 min 0 W/m 3,9 C 3,8 C 19,3 km/h (3 Bft)
11.11.2017 02:51 7,1 C 80 % 1004,4 hPa 0,0 l/m 11,3 km/h (2 Bft) W 269 0 min 0 W/m 3,9 C 3,6 C 24,1 km/h (4 Bft)
11.11.2017 02:54 7,1 C 80 % 1004,4 hPa 0,0 l/m 13,8 km/h (3 Bft) W 266 0 min 0 W/m 3,9 C 2,2 C 30,6 km/h (5 Bft)
11.11.2017 02:57 7,2 C 81 % 1004,4 hPa 0,0 l/m 15,8 km/h (3 Bft) W 265 0 min 0 W/m 4,2 C 1,4 C 27,4 km/h (5 Bft)
11.11.2017 03:00 7,3 C 81 % 1004,4 hPa 0,0 l/m 17,2 km/h (3 Bft) NW 319 0 min 0 W/m 4,3 C 0,9 C 27,4 km/h (5 Bft)
11.11.2017 03:03 7,3 C 81 % 1004,3 hPa 0,0 l/m 11,7 km/h (2 Bft) W 265 0 min 0 W/m 4,3 C 3,6 C 20,9 km/h (4 Bft)
11.11.2017 03:06 7,4 C 81 % 1004,3 hPa 0,0 l/m 13,9 km/h (3 Bft) W 264 0 min 0 W/m 4,4 C 2,5 C 24,1 km/h (4 Bft)
11.11.2017 03:09 7,5 C 81 % 1004,3 hPa 0,0 l/m 14,1 km/h (3 Bft) S-SW 209 0 min 0 W/m 4,5 C 2,5 C 24,1 km/h (4 Bft)
11.11.2017 03:12 7,6 C 81 % 1004,2 hPa 0,0 l/m 12,4 km/h (2 Bft) W-SW 254 0 min 0 W/m 4,6 C 3,5 C 22,5 km/h (4 Bft)
11.11.2017 03:15 7,6 C 81 % 1004,2 hPa 0,0 l/m 14,0 km/h (3 Bft) W-NW 282 0 min 0 W/m 4,6 C 2,7 C 25,7 km/h (4 Bft)
11.11.2017 03:18 7,7 C 81 % 1004,2 hPa 0,0 l/m 12,6 km/h (3 Bft) W 273 0 min 0 W/m 4,7 C 3,5 C 29,0 km/h (5 Bft)
11.11.2017 03:21 7,7 C 80 % 1004,1 hPa 0,0 l/m 13,2 km/h (3 Bft) W 278 0 min 0 W/m 4,5 C 3,2 C 29,0 km/h (5 Bft)
11.11.2017 03:24 7,7 C 79 % 1004,1 hPa 0,0 l/m 12,9 km/h (3 Bft) W-SW 252 0 min 0 W/m 4,3 C 3,4 C 25,7 km/h (4 Bft)
11.11.2017 03:27 7,7 C 77 % 1004,1 hPa 0,0 l/m 17,4 km/h (3 Bft) W-NW 298 0 min 0 W/m 3,9 C 1,3 C 30,6 km/h (5 Bft)
11.11.2017 03:30 7,7 C 76 % 1004,0 hPa 0,0 l/m 13,1 km/h (3 Bft) W 279 0 min 0 W/m 3,7 C 3,3 C 25,7 km/h (4 Bft)
11.11.2017 03:33 7,8 C 76 % 1004,0 hPa 0,0 l/m 17,9 km/h (3 Bft) W 262 0 min 0 W/m 3,8 C 1,2 C 35,4 km/h (5 Bft)
11.11.2017 03:36 7,8 C 75 % 1004,0 hPa 0,0 l/m 15,8 km/h (3 Bft) W-NW 294 0 min 0 W/m 3,7 C 2,1 C 35,4 km/h (5 Bft)
11.11.2017 03:39 7,9 C 75 % 1004,0 hPa 0,0 l/m 14,9 km/h (3 Bft) W-NW 282 0 min 0 W/m 3,7 C 2,6 C 27,4 km/h (5 Bft)
11.11.2017 03:42 8,0 C 75 % 1004,1 hPa 0,0 l/m 17,7 km/h (3 Bft) W 273 0 min 0 W/m 3,8 C 1,6 C 29,0 km/h (5 Bft)
11.11.2017 03:45 8,1 C 75 % 1004,0 hPa 0,0 l/m 15,4 km/h (3 Bft) W 274 0 min 0 W/m 3,9 C 2,7 C 33,8 km/h (5 Bft)
11.11.2017 03:48 8,1 C 74 % 1004,0 hPa 0,0 l/m 17,1 km/h (3 Bft) NW 324 0 min 0 W/m 3,8 C 1,9 C 35,4 km/h (5 Bft)
11.11.2017 03:51 8,1 C 74 % 1004,0 hPa 0,0 l/m 15,2 km/h (3 Bft) W-NW 298 0 min 0 W/m 3,8 C 2,7 C 30,6 km/h (5 Bft)
11.11.2017 03:54 8,2 C 74 % 1003,9 hPa 0,0 l/m 13,1 km/h (3 Bft) W-NW 303 0 min 0 W/m 3,8 C 3,9 C 27,4 km/h (5 Bft)
11.11.2017 03:57 8,2 C 74 % 1004,0 hPa 0,0 l/m 11,0 km/h (2 Bft) W 261 0 min 0 W/m 3,8 C 5,0 C 27,4 km/h (5 Bft)
11.11.2017 04:00 8,2 C 75 % 1004,0 hPa 0,0 l/m 12,6 km/h (3 Bft) NW 319 0 min 0 W/m 4,0 C 4,1 C 24,1 km/h (4 Bft)
11.11.2017 04:03 8,2 C 74 % 1004,0 hPa 0,0 l/m 14,0 km/h (3 Bft) NW 306 0 min 0 W/m 3,8 C 3,4 C 22,5 km/h (4 Bft)
11.11.2017 04:06 8,2 C 73 % 1004,0 hPa 0,0 l/m 15,1 km/h (3 Bft) NW 310 0 min 0 W/m 3,7 C 2,9 C 27,4 km/h (5 Bft)
11.11.2017 04:09 8,2 C 74 % 1004,0 hPa 0,0 l/m 13,7 km/h (3 Bft) W-NW 286 0 min 0 W/m 3,8 C 3,6 C 22,5 km/h (4 Bft)
11.11.2017 04:12 8,2 C 74 % 1004,0 hPa 0,0 l/m 12,3 km/h (2 Bft) SW 226 0 min 0 W/m 3,8 C 4,3 C 29,0 km/h (5 Bft)
11.11.2017 04:15 8,2 C 74 % 1004,1 hPa 0,0 l/m 16,4 km/h (3 Bft) W 278 0 min 0 W/m 3,8 C 2,3 C 27,4 km/h (5 Bft)
11.11.2017 04:18 8,2 C 76 % 1004,1 hPa 0,0 l/m 10,5 km/h (2 Bft) W 271 0 min 0 W/m 4,2 C 5,3 C 33,8 km/h (5 Bft)
11.11.2017 04:21 8,2 C 76 % 1004,0 hPa 0,0 l/m 14,6 km/h (3 Bft) W-NW 282 0 min 0 W/m 4,2 C 3,1 C 27,4 km/h (5 Bft)
11.11.2017 04:24 8,1 C 78 % 1003,9 hPa 0,0 l/m 8,5 km/h (2 Bft) NW 319 0 min 0 W/m 4,5 C 6,5 C 16,1 km/h (3 Bft)
11.11.2017 04:27 8,1 C 79 % 1003,9 hPa 0,0 l/m 8,6 km/h (2 Bft) W-NW 292 0 min 0 W/m 4,7 C 6,4 C 17,7 km/h (3 Bft)
11.11.2017 04:30 7,9 C 79 % 1003,9 hPa 0,0 l/m 11,2 km/h (2 Bft) W-NW 295 0 min 0 W/m 4,5 C 4,5 C 19,3 km/h (3 Bft)
11.11.2017 04:33 7,8 C 79 % 1004,1 hPa 0,0 l/m 12,2 km/h (2 Bft) W-NW 284 0 min 0 W/m 4,4 C 3,9 C 25,7 km/h (4 Bft)
11.11.2017 04:36 7,8 C 80 % 1004,1 hPa 0,0 l/m 20,4 km/h (4 Bft) W-NW 288 0 min 0 W/m 4,6 C 0,3 C 41,8 km/h (6 Bft)
11.11.2017 04:39 7,7 C 80 % 1004,3 hPa 0,2 l/m 22,5 km/h (4 Bft) W-SW 239 0 min 0 W/m 4,5 C -0,5 C 45,1 km/h (6 Bft)
11.11.2017 04:42 7,5 C 80 % 1004,2 hPa 0,0 l/m 17,8 km/h (3 Bft) W-NW 284 0 min 0 W/m 4,3 C 0,9 C 30,6 km/h (5 Bft)
11.11.2017 04:45 7,3 C 80 % 1004,1 hPa 0,2 l/m 13,5 km/h (3 Bft) W-NW 292 0 min 0 W/m 4,1 C 2,6 C 25,7 km/h (4 Bft)
11.11.2017 04:48 7,1 C 81 % 1003,9 hPa 0,0 l/m 11,8 km/h (2 Bft) NW 312 0 min 0 W/m 4,1 C 3,3 C 32,2 km/h (5 Bft)
11.11.2017 04:51 6,9 C 81 % 1003,8 hPa 0,0 l/m 9,3 km/h (2 Bft) N-NW 332 0 min 0 W/m 3,9 C 4,6 C 19,3 km/h (3 Bft)
11.11.2017 04:54 6,8 C 82 % 1003,8 hPa 0,0 l/m 8,7 km/h (2 Bft) W 276 0 min 0 W/m 3,9 C 5,0 C 17,7 km/h (3 Bft)
11.11.2017 04:57 6,8 C 82 % 1003,8 hPa 0,0 l/m 7,1 km/h (2 Bft) W-NW 300 0 min 0 W/m 3,9 C 6,2 C 12,9 km/h (3 Bft)
11.11.2017 05:00 6,7 C 83 % 1003,6 hPa 0,0 l/m 8,1 km/h (2 Bft) W-SW 255 0 min 0 W/m 4,0 C 5,3 C 22,5 km/h (4 Bft)
11.11.2017 05:03 6,7 C 83 % 1003,6 hPa 0,0 l/m 9,7 km/h (2 Bft) W 271 0 min 0 W/m 4,0 C 4,2 C 22,5 km/h (4 Bft)
11.11.2017 05:06 6,7 C 84 % 1003,6 hPa 0,0 l/m 9,5 km/h (2 Bft) W-NW 290 0 min 0 W/m 4,2 C 4,3 C 20,9 km/h (4 Bft)
11.11.2017 05:09 6,7 C 84 % 1003,6 hPa 0,0 l/m 8,4 km/h (2 Bft) W 275 0 min 0 W/m 4,2 C 5,1 C 17,7 km/h (3 Bft)
11.11.2017 05:12 6,7 C 84 % 1003,6 hPa 0,0 l/m 9,9 km/h (2 Bft) SW 231 0 min 0 W/m 4,2 C 4,0 C 20,9 km/h (4 Bft)
11.11.2017 05:15 6,7 C 85 % 1003,5 hPa 0,0 l/m 7,7 km/h (2 Bft) W-SW 255 0 min 0 W/m 4,4 C 5,6 C 14,5 km/h (3 Bft)
11.11.2017 05:18 6,7 C 85 % 1003,5 hPa 0,0 l/m 7,3 km/h (2 Bft) W-SW 245 0 min 0 W/m 4,4 C 6,0 C 14,5 km/h (3 Bft)
11.11.2017 05:21 6,7 C 85 % 1003,5 hPa 0,0 l/m 8,3 km/h (2 Bft) W 273 0 min 0 W/m 4,4 C 5,2 C 17,7 km/h (3 Bft)
11.11.2017 05:24 6,7 C 85 % 1003,5 hPa 0,0 l/m 7,5 km/h (2 Bft) W-SW 253 0 min 0 W/m 4,4 C 5,8 C 17,7 km/h (3 Bft)
11.11.2017 05:27 6,7 C 85 % 1003,6 hPa 0,0 l/m 7,1 km/h (2 Bft) W 261 0 min 0 W/m 4,4 C 6,1 C 12,9 km/h (3 Bft)
11.11.2017 05:30 6,8 C 85 % 1003,6 hPa 0,0 l/m 10,1 km/h (2 Bft) W-SW 240 0 min 0 W/m 4,5 C 4,0 C 22,5 km/h (4 Bft)
11.11.2017 05:33 6,8 C 85 % 1003,6 hPa 0,0 l/m 14,3 km/h (3 Bft) W-NW 290 0 min 0 W/m 4,5 C 1,6 C 25,7 km/h (4 Bft)
11.11.2017 05:36 6,9 C 84 % 1003,6 hPa 0,0 l/m 13,8 km/h (3 Bft) W 275 0 min 0 W/m 4,4 C 2,0 C 24,1 km/h (4 Bft)
11.11.2017 05:39 7,0 C 84 % 1003,5 hPa 0,0 l/m 12,8 km/h (3 Bft) W-NW 302 0 min 0 W/m 4,5 C 2,6 C 27,4 km/h (5 Bft)
11.11.2017 05:42 7,2 C 83 % 1003,6 hPa 0,0 l/m 12,6 km/h (3 Bft) N-NO 22 0 min 0 W/m 4,5 C 3,0 C 22,5 km/h (4 Bft)
11.11.2017 05:45 7,3 C 83 % 1003,6 hPa 0,0 l/m 11,6 km/h (2 Bft) W 266 0 min 0 W/m 4,6 C 3,6 C 29,0 km/h (5 Bft)
11.11.2017 05:48 7,4 C 83 % 1003,7 hPa 0,0 l/m 15,9 km/h (3 Bft) W-NW 284 0 min 0 W/m 4,7 C 1,6 C 29,0 km/h (5 Bft)
11.11.2017 05:51 7,3 C 82 % 1003,7 hPa 0,0 l/m 15,4 km/h (3 Bft) SW 236 0 min 0 W/m 4,4 C 1,7 C 32,2 km/h (5 Bft)
11.11.2017 05:54 7,2 C 81 % 1003,5 hPa 0,0 l/m 16,4 km/h (3 Bft) W 271 0 min 0 W/m 4,2 C 1,1 C 25,7 km/h (4 Bft)
11.11.2017 05:57 7,2 C 82 % 1003,7 hPa 0,0 l/m 13,6 km/h (3 Bft) W-SW 252 0 min 0 W/m 4,3 C 2,4 C 29,0 km/h (5 Bft)
11.11.2017 06:00 7,1 C 82 % 1003,7 hPa 0,0 l/m 16,3 km/h (3 Bft) W-SW 253 0 min 0 W/m 4,2 C 1,0 C 30,6 km/h (5 Bft)
11.11.2017 06:03 7,1 C 82 % 1003,7 hPa 0,0 l/m 13,2 km/h (3 Bft) W-SW 256 0 min 0 W/m 4,2 C 2,5 C 20,9 km/h (4 Bft)
11.11.2017 06:06 6,9 C 82 % 1003,6 hPa 0,0 l/m 23,5 km/h (4 Bft) W 266 0 min 0 W/m 4,0 C -1,9 C 43,5 km/h (6 Bft)
11.11.2017 06:09 6,8 C 83 % 1003,6 hPa 0,0 l/m 16,9 km/h (3 Bft) W 263 0 min 0 W/m 4,1 C 0,4 C 27,4 km/h (5 Bft)
11.11.2017 06:12 6,8 C 83 % 1003,5 hPa 0,0 l/m 11,7 km/h (2 Bft) SW 230 0 min 0 W/m 4,1 C 3,0 C 22,5 km/h (4 Bft)
11.11.2017 06:15 6,8 C 84 % 1003,6 hPa 0,2 l/m 14,0 km/h (3 Bft) SW 225 0 min 0 W/m 4,3 C 1,8 C 25,7 km/h (4 Bft)
11.11.2017 06:18 6,8 C 84 % 1003,6 hPa 0,0 l/m 17,0 km/h (3 Bft) W-SW 244 0 min 0 W/m 4,3 C 0,3 C 29,0 km/h (5 Bft)
11.11.2017 06:21 6,8 C 84 % 1003,5 hPa 0,0 l/m 18,5 km/h (3 Bft) SW 228 0 min 0 W/m 4,3 C -0,3 C 30,6 km/h (5 Bft)
11.11.2017 06:24 6,9 C 84 % 1003,5 hPa 0,0 l/m 17,3 km/h (3 Bft) W 265 0 min 0 W/m 4,4 C 0,3 C 29,0 km/h (5 Bft)
11.11.2017 06:27 6,9 C 84 % 1003,5 hPa 0,0 l/m 13,4 km/h (3 Bft) W-NW 293 0 min 0 W/m 4,4 C 2,2 C 24,1 km/h (4 Bft)
11.11.2017 06:30 6,9 C 85 % 1003,5 hPa 0,0 l/m 14,2 km/h (3 Bft) W-SW 237 0 min 0 W/m 4,6 C 1,8 C 22,5 km/h (4 Bft)
11.11.2017 06:33 6,9 C 85 % 1003,4 hPa 0,0 l/m 11,2 km/h (2 Bft) W-NW 294 0 min 0 W/m 4,6 C 3,4 C 19,3 km/h (3 Bft)
11.11.2017 06:36 6,9 C 85 % 1003,5 hPa 0,0 l/m 12,5 km/h (2 Bft) W-SW 243 0 min 0 W/m 4,6 C 2,7 C 19,3 km/h (3 Bft)
11.11.2017 06:39 6,9 C 85 % 1003,4 hPa 0,0 l/m 12,2 km/h (2 Bft) W-NW 296 0 min 0 W/m 4,6 C 2,8 C 29,0 km/h (5 Bft)
11.11.2017 06:42 6,9 C 85 % 1003,4 hPa 0,0 l/m 16,7 km/h (3 Bft) W-NW 288 0 min 0 W/m 4,6 C 0,6 C 27,4 km/h (5 Bft)
11.11.2017 06:45 6,9 C 84 % 1003,3 hPa 0,0 l/m 14,3 km/h (3 Bft) W-SW 254 0 min 0 W/m 4,4 C 1,7 C 22,5 km/h (4 Bft)
11.11.2017 06:48 6,8 C 84 % 1003,3 hPa 0,0 l/m 13,8 km/h (3 Bft) W 271 0 min 0 W/m 4,3 C 1,9 C 27,4 km/h (5 Bft)
11.11.2017 06:51 6,8 C 84 % 1003,1 hPa 0,0 l/m 10,7 km/h (2 Bft) W-SW 246 0 min 0 W/m 4,3 C 3,6 C 22,5 km/h (4 Bft)
11.11.2017 06:54 6,7 C 84 % 1003,2 hPa 0,0 l/m 9,0 km/h (2 Bft) W-SW 247 0 min 0 W/m 4,2 C 4,6 C 19,3 km/h (3 Bft)
11.11.2017 06:57 6,7 C 84 % 1003,0 hPa 0,0 l/m 7,0 km/h (2 Bft) W-SW 248 0 min 0 W/m 4,2 C 6,2 C 14,5 km/h (3 Bft)
11.11.2017 07:00 6,7 C 84 % 1003,0 hPa 0,0 l/m 6,4 km/h (2 Bft) W 259 0 min 0 W/m 4,2 C 6,7 C 12,9 km/h (3 Bft)
11.11.2017 07:03 6,7 C 84 % 1003,0 hPa 0,0 l/m 7,3 km/h (2 Bft) SW 227 0 min 0 W/m 4,2 C 6,0 C 9,7 km/h (2 Bft)
11.11.2017 07:06 6,6 C 85 % 1003,0 hPa 0,2 l/m 13,7 km/h (3 Bft) W-SW 242 0 min 0 W/m 4,3 C 1,7 C 27,4 km/h (5 Bft)
11.11.2017 07:09 6,6 C 86 % 1003,0 hPa 0,0 l/m 10,1 km/h (2 Bft) SW 224 0 min 0 W/m 4,4 C 3,8 C 25,7 km/h (4 Bft)
11.11.2017 07:12 6,6 C 86 % 1003,0 hPa 0,0 l/m 17,5 km/h (3 Bft) W-SW 254 0 min 0 W/m 4,4 C -0,1 C 27,4 km/h (5 Bft)
11.11.2017 07:15 6,5 C 86 % 1002,9 hPa 0,0 l/m 17,2 km/h (3 Bft) W-SW 245 0 min 0 W/m 4,3 C -0,1 C 27,4 km/h (5 Bft)
11.11.2017 07:18 6,5 C 86 % 1003,0 hPa 0,0 l/m 14,9 km/h (3 Bft) W 260 0 min 0 W/m 4,3 C 0,9 C 24,1 km/h (4 Bft)
11.11.2017 07:21 6,6 C 86 % 1002,9 hPa 0,0 l/m 15,1 km/h (3 Bft) W-SW 257 0 min 0 W/m 4,4 C 1,0 C 24,1 km/h (4 Bft)
11.11.2017 07:24 6,6 C 86 % 1002,9 hPa 0,0 l/m 14,1 km/h (3 Bft) W-SW 244 0 min 0 W/m 4,4 C 1,5 C 20,9 km/h (4 Bft)
11.11.2017 07:27 6,7 C 86 % 1002,9 hPa 0,0 l/m 13,5 km/h (3 Bft) SW 216 0 min 0 W/m 4,5 C 1,9 C 20,9 km/h (4 Bft)
11.11.2017 07:30 6,8 C 86 % 1003,0 hPa 0,0 l/m 13,1 km/h (3 Bft) W-SW 244 0 min 0 W/m 4,6 C 2,2 C 19,3 km/h (3 Bft)
11.11.2017 07:33 6,9 C 86 % 1003,0 hPa 0,0 l/m 10,3 km/h (2 Bft) W-SW 252 0 min 0 W/m 4,7 C 4,0 C 17,7 km/h (3 Bft)
11.11.2017 07:36 6,9 C 86 % 1003,0 hPa 0,0 l/m 13,5 km/h (3 Bft) W 259 0 min 0 W/m 4,7 C 2,1 C 24,1 km/h (4 Bft)
11.11.2017 07:39 7,0 C 85 % 1003,0 hPa 0,0 l/m 10,9 km/h (2 Bft) W-SW 247 0 min 0 W/m 4,7 C 3,7 C 24,1 km/h (4 Bft)
11.11.2017 07:42 7,1 C 84 % 1002,9 hPa 0,0 l/m 14,0 km/h (3 Bft) W-SW 248 0 min 0 W/m 4,6 C 2,1 C 27,4 km/h (5 Bft)
11.11.2017 07:45 7,2 C 83 % 1002,9 hPa 0,0 l/m 17,4 km/h (3 Bft) SW 232 0 min 0 W/m 4,5 C 0,7 C 35,4 km/h (5 Bft)
11.11.2017 07:48 7,3 C 82 % 1002,9 hPa 0,0 l/m 14,7 km/h (3 Bft) W-SW 244 0 min 0 W/m 4,4 C 2,0 C 24,1 km/h (4 Bft)
11.11.2017 07:51 7,3 C 81 % 1002,9 hPa 0,0 l/m 12,1 km/h (2 Bft) SW 232 0 min 9 W/m 4,3 C 3,3 C 19,3 km/h (3 Bft)
11.11.2017 07:54 7,4 C 81 % 1002,9 hPa 0,0 l/m 14,7 km/h (3 Bft) W-SW 238 0 min 12 W/m 4,4 C 2,1 C 27,4 km/h (5 Bft)
11.11.2017 07:57 7,6 C 80 % 1003,0 hPa 0,0 l/m 13,9 km/h (3 Bft) W 279 0 min 9 W/m 4,4 C 2,8 C 22,5 km/h (4 Bft)
11.11.2017 08:00 7,7 C 80 % 1003,0 hPa 0,0 l/m 14,5 km/h (3 Bft) SW 234 0 min 0 W/m 4,5 C 2,6 C 22,5 km/h (4 Bft)
11.11.2017 08:03 7,7 C 80 % 1003,1 hPa 0,0 l/m 18,4 km/h (3 Bft) W-SW 255 0 min 0 W/m 4,5 C 0,9 C 32,2 km/h (5 Bft)
11.11.2017 08:06 7,5 C 79 % 1003,1 hPa 0,4 l/m 20,7 km/h (4 Bft) W 268 0 min 0 W/m 4,1 C -0,2 C 35,4 km/h (5 Bft)
11.11.2017 08:09 7,2 C 80 % 1003,0 hPa 0,0 l/m 10,4 km/h (2 Bft) W-SW 253 0 min 0 W/m 4,0 C 4,2 C 17,7 km/h (3 Bft)
11.11.2017 08:12 7,0 C 80 % 1002,9 hPa 0,0 l/m 12,4 km/h (2 Bft) W 263 0 min 5 W/m 3,8 C 2,8 C 22,5 km/h (4 Bft)
11.11.2017 08:15 6,8 C 81 % 1002,9 hPa 0,0 l/m 11,1 km/h (2 Bft) W 267 0 min 9 W/m 3,8 C 3,4 C 22,5 km/h (4 Bft)
11.11.2017 08:18 6,6 C 80 % 1002,9 hPa 0,0 l/m 15,4 km/h (3 Bft) W 278 0 min 9 W/m 3,4 C 0,8 C 29,0 km/h (5 Bft)
11.11.2017 08:21 6,6 C 80 % 1002,9 hPa 0,2 l/m 9,4 km/h (2 Bft) SW 217 0 min 7 W/m 3,4 C 4,2 C 14,5 km/h (3 Bft)
11.11.2017 08:24 6,5 C 81 % 1003,0 hPa 0,0 l/m 5,0 km/h (1 Bft) W-SW 240 0 min 0 W/m 3,5 C 6,5 C 8,0 km/h (2 Bft)
11.11.2017 08:27 6,5 C 82 % 1003,3 hPa 0,0 l/m 4,5 km/h (1 Bft) S-SW 207 0 min 0 W/m 3,7 C 6,5 C 12,9 km/h (3 Bft)
11.11.2017 08:30 6,4 C 82 % 1003,0 hPa 0,4 l/m 6,0 km/h (2 Bft) W-NW 302 0 min 0 W/m 3,6 C 6,4 C 19,3 km/h (3 Bft)
11.11.2017 08:33 6,4 C 82 % 1002,9 hPa 0,0 l/m 7,4 km/h (2 Bft) W-SW 249 0 min 5 W/m 3,6 C 5,6 C 17,7 km/h (3 Bft)
11.11.2017 08:36 6,3 C 83 % 1002,9 hPa 0,0 l/m 9,3 km/h (2 Bft) N-NW 331 0 min 7 W/m 3,6 C 4,0 C 24,1 km/h (4 Bft)
11.11.2017 08:39 6,3 C 84 % 1002,9 hPa 0,0 l/m 12,5 km/h (2 Bft) W 280 0 min 9 W/m 3,8 C 2,0 C 25,7 km/h (4 Bft)
11.11.2017 08:42 6,2 C 85 % 1002,9 hPa 0,0 l/m 14,9 km/h (3 Bft) W-NW 284 0 min 11 W/m 3,9 C 0,6 C 25,7 km/h (4 Bft)
11.11.2017 08:45 6,2 C 85 % 1002,8 hPa 0,0 l/m 10,4 km/h (2 Bft) W 279 0 min 11 W/m 3,9 C 3,1 C 19,3 km/h (3 Bft)
11.11.2017 08:48 6,2 C 86 % 1002,8 hPa 0,0 l/m 10,2 km/h (2 Bft) W 278 0 min 12 W/m 4,0 C 3,3 C 19,3 km/h (3 Bft)
11.11.2017 08:51 6,2 C 86 % 1002,7 hPa 0,0 l/m 12,9 km/h (3 Bft) W 259 0 min 21 W/m 4,0 C 1,6 C 22,5 km/h (4 Bft)
11.11.2017 08:54 6,2 C 86 % 1002,7 hPa 0,2 l/m 16,7 km/h (3 Bft) W-NW 292 0 min 30 W/m 4,0 C -0,3 C 25,7 km/h (4 Bft)
11.11.2017 08:57 6,2 C 86 % 1002,8 hPa 0,0 l/m 14,6 km/h (3 Bft) W 281 0 min 37 W/m 4,0 C 0,7 C 22,5 km/h (4 Bft)
11.11.2017 09:00 6,3 C 86 % 1002,8 hPa 0,0 l/m 13,8 km/h (3 Bft) W-SW 242 0 min 47 W/m 4,1 C 1,3 C 27,4 km/h (5 Bft)
11.11.2017 09:03 6,4 C 86 % 1002,8 hPa 0,0 l/m 15,1 km/h (3 Bft) W-NW 284 0 min 56 W/m 4,2 C 0,7 C 25,7 km/h (4 Bft)
11.11.2017 09:06 6,6 C 85 % 1002,8 hPa 0,0 l/m 14,1 km/h (3 Bft) W-SW 248 0 min 70 W/m 4,3 C 1,5 C 22,5 km/h (4 Bft)
11.11.2017 09:09 6,8 C 85 % 1002,8 hPa 0,0 l/m 16,5 km/h (3 Bft) S-SW 213 3 min 90 W/m 4,5 C 0,6 C 33,8 km/h (5 Bft)
11.11.2017 09:12 6,8 C 86 % 1002,7 hPa 0,0 l/m 18,7 km/h (3 Bft) SW 223 0 min 67 W/m 4,6 C -0,3 C 30,6 km/h (5 Bft)
11.11.2017 09:15 6,7 C 86 % 1002,7 hPa 0,0 l/m 20,4 km/h (4 Bft) W-SW 238 0 min 39 W/m 4,5 C -1,1 C 27,4 km/h (5 Bft)
11.11.2017 09:18 6,6 C 87 % 1002,7 hPa 0,0 l/m 19,0 km/h (3 Bft) SW 217 0 min 39 W/m 4,6 C -0,7 C 29,0 km/h (5 Bft)
11.11.2017 09:21 6,4 C 87 % 1002,7 hPa 0,0 l/m 16,8 km/h (3 Bft) SW 234 0 min 44 W/m 4,4 C -0,1 C 27,4 km/h (5 Bft)
11.11.2017 09:24 6,4 C 88 % 1002,7 hPa 0,0 l/m 15,6 km/h (3 Bft) S-SW 199 0 min 40 W/m 4,6 C 0,5 C 27,4 km/h (5 Bft)
11.11.2017 09:27 6,3 C 88 % 1002,7 hPa 0,0 l/m 18,8 km/h (3 Bft) SW 217 0 min 54 W/m 4,5 C -1,0 C 25,7 km/h (4 Bft)
11.11.2017 09:30 6,2 C 89 % 1002,7 hPa 0,0 l/m 17,6 km/h (3 Bft) S-SW 199 3 min 113 W/m 4,5 C -0,7 C 25,7 km/h (4 Bft)
11.11.2017 09:33 6,3 C 90 % 1002,6 hPa 0,0 l/m 15,4 km/h (3 Bft) SW 234 3 min 139 W/m 4,8 C 0,5 C 22,5 km/h (4 Bft)
11.11.2017 09:36 6,3 C 90 % 1002,6 hPa 0,0 l/m 19,4 km/h (3 Bft) W-SW 245 3 min 146 W/m 4,8 C -1,3 C 32,2 km/h (5 Bft)
11.11.2017 09:39 6,4 C 90 % 1002,7 hPa 0,0 l/m 19,8 km/h (3 Bft) SW 228 0 min 35 W/m 4,9 C -1,3 C 29,0 km/h (5 Bft)
11.11.2017 09:42 6,5 C 90 % 1003,0 hPa 0,0 l/m 21,0 km/h (4 Bft) W 267 0 min 7 W/m 5,0 C -1,6 C 35,4 km/h (5 Bft)
11.11.2017 09:45 6,4 C 90 % 1003,0 hPa 0,0 l/m 13,2 km/h (3 Bft) W 265 0 min 0 W/m 4,9 C 1,7 C 32,2 km/h (5 Bft)
11.11.2017 09:48 6,3 C 90 % 1002,8 hPa 0,2 l/m 13,8 km/h (3 Bft) W 269 0 min 5 W/m 4,8 C 1,3 C 27,4 km/h (5 Bft)
11.11.2017 09:51 6,3 C 90 % 1002,9 hPa 0,2 l/m 13,3 km/h (3 Bft) W-SW 244 0 min 11 W/m 4,8 C 1,5 C 24,1 km/h (4 Bft)
11.11.2017 09:54 6,2 C 90 % 1002,9 hPa 0,0 l/m 15,8 km/h (3 Bft) W-SW 249 0 min 9 W/m 4,7 C 0,1 C 25,7 km/h (4 Bft)
11.11.2017 09:57 6,2 C 90 % 1003,0 hPa 0,0 l/m 18,7 km/h (3 Bft) W 264 0 min 7 W/m 4,7 C -1,1 C 37,0 km/h (5 Bft)
11.11.2017 10:00 6,1 C 90 % 1002,9 hPa 0,2 l/m 14,1 km/h (3 Bft) W 281 0 min 12 W/m 4,6 C 0,9 C 27,4 km/h (5 Bft)
11.11.2017 10:03 6,0 C 90 % 1002,8 hPa 0,2 l/m 13,1 km/h (3 Bft) W-SW 244 0 min 18 W/m 4,5 C 1,3 C 22,5 km/h (4 Bft)
11.11.2017 10:06 5,9 C 90 % 1002,8 hPa 0,0 l/m 12,0 km/h (2 Bft) W 264 0 min 26 W/m 4,4 C 1,8 C 19,3 km/h (3 Bft)
11.11.2017 10:09 5,8 C 90 % 1002,7 hPa 0,0 l/m 10,4 km/h (2 Bft) W 268 0 min 40 W/m 4,3 C 2,7 C 16,1 km/h (3 Bft)
11.11.2017 10:12 5,7 C 90 % 1002,6 hPa 0,0 l/m 11,4 km/h (2 Bft) W-SW 244 0 min 53 W/m 4,2 C 1,9 C 17,7 km/h (3 Bft)
11.11.2017 10:15 5,8 C 91 % 1002,6 hPa 0,0 l/m 12,0 km/h (2 Bft) S-SW 213 0 min 44 W/m 4,4 C 1,7 C 20,9 km/h (4 Bft)
11.11.2017 10:18 5,8 C 91 % 1002,5 hPa 0,0 l/m 13,3 km/h (3 Bft) S-SW 213 0 min 37 W/m 4,4 C 0,9 C 20,9 km/h (4 Bft)
11.11.2017 10:21 5,9 C 91 % 1002,5 hPa 0,0 l/m 10,2 km/h (2 Bft) W-NW 289 0 min 49 W/m 4,5 C 2,9 C 19,3 km/h (3 Bft)
11.11.2017 10:24 6,0 C 91 % 1002,5 hPa 0,0 l/m 10,2 km/h (2 Bft) W-SW 240 0 min 90 W/m 4,6 C 3,0 C 17,7 km/h (3 Bft)
11.11.2017 10:27 6,1 C 91 % 1002,5 hPa 0,0 l/m 8,8 km/h (2 Bft) W-SW 238 0 min 121 W/m 4,7 C 4,1 C 16,1 km/h (3 Bft)
11.11.2017 10:30 6,3 C 91 % 1002,5 hPa 0,0 l/m 12,7 km/h (3 Bft) S-SW 211 3 min 174 W/m 4,9 C 1,9 C 20,9 km/h (4 Bft)
11.11.2017 10:33 6,5 C 92 % 1002,4 hPa 0,0 l/m 17,6 km/h (3 Bft) SW 230 0 min 105 W/m 5,3 C -0,3 C 24,1 km/h (4 Bft)
11.11.2017 10:36 6,5 C 92 % 1002,4 hPa 0,0 l/m 19,4 km/h (3 Bft) W-SW 237 0 min 46 W/m 5,3 C -1,0 C 25,7 km/h (4 Bft)
11.11.2017 10:39 6,5 C 91 % 1002,4 hPa 0,0 l/m 19,3 km/h (3 Bft) W-SW 240 0 min 65 W/m 5,1 C -1,0 C 27,4 km/h (5 Bft)
11.11.2017 10:42 6,4 C 91 % 1002,4 hPa 0,0 l/m 15,9 km/h (3 Bft) SW 232 0 min 30 W/m 5,0 C 0,3 C 24,1 km/h (4 Bft)
11.11.2017 10:45 6,3 C 91 % 1002,4 hPa 0,0 l/m 17,3 km/h (3 Bft) SW 229 0 min 23 W/m 4,9 C -0,4 C 25,7 km/h (4 Bft)
11.11.2017 10:48 6,3 C 91 % 1002,4 hPa 0,0 l/m 15,9 km/h (3 Bft) SW 225 0 min 16 W/m 4,9 C 0,2 C 24,1 km/h (4 Bft)
11.11.2017 10:51 6,2 C 91 % 1002,4 hPa 0,0 l/m 17,2 km/h (3 Bft) W-SW 245 0 min 18 W/m 4,8 C -0,5 C 27,4 km/h (5 Bft)
11.11.2017 10:54 6,2 C 91 % 1002,4 hPa 0,0 l/m 12,7 km/h (3 Bft) SW 233 0 min 23 W/m 4,8 C 1,7 C 19,3 km/h (3 Bft)
11.11.2017 10:57 6,1 C 91 % 1002,3 hPa 0,0 l/m 11,0 km/h (2 Bft) S-SW 202 0 min 32 W/m 4,7 C 2,6 C 17,7 km/h (3 Bft)
11.11.2017 11:00 6,0 C 91 % 1002,3 hPa 0,0 l/m 12,8 km/h (3 Bft) SW 227 0 min 47 W/m 4,6 C 1,4 C 19,3 km/h (3 Bft)
11.11.2017 11:03 6,0 C 91 % 1002,3 hPa 0,0 l/m 13,0 km/h (3 Bft) SW 222 0 min 84 W/m 4,6 C 1,3 C 17,7 km/h (3 Bft)
11.11.2017 11:06 6,1 C 92 % 1002,3 hPa 0,0 l/m 10,0 km/h (2 Bft) S-SW 204 0 min 91 W/m 4,9 C 3,3 C 14,5 km/h (3 Bft)
11.11.2017 11:09 6,4 C 93 % 1002,3 hPa 0,0 l/m 9,9 km/h (2 Bft) S-SW 207 3 min 181 W/m 5,4 C 3,7 C 14,5 km/h (3 Bft)
11.11.2017 11:12 6,4 C 93 % 1002,4 hPa 0,0 l/m 15,1 km/h (3 Bft) SW 226 0 min 148 W/m 5,4 C 0,7 C 24,1 km/h (4 Bft)
11.11.2017 11:15 6,4 C 92 % 1002,3 hPa 0,0 l/m 14,7 km/h (3 Bft) SW 216 0 min 56 W/m 5,2 C 0,9 C 22,5 km/h (4 Bft)
11.11.2017 11:18 6,4 C 92 % 1002,3 hPa 0,0 l/m 15,7 km/h (3 Bft) S-SW 203 0 min 37 W/m 5,2 C 0,4 C 22,5 km/h (4 Bft)
11.11.2017 11:21 6,3 C 92 % 1002,2 hPa 0,0 l/m 16,6 km/h (3 Bft) S-SW 198 0 min 40 W/m 5,1 C -0,1 C 24,1 km/h (4 Bft)
11.11.2017 11:24 6,3 C 92 % 1002,2 hPa 0,0 l/m 15,8 km/h (3 Bft) S-SW 212 0 min 104 W/m 5,1 C 0,3 C 22,5 km/h (4 Bft)
11.11.2017 11:27 6,3 C 92 % 1002,1 hPa 0,0 l/m 18,9 km/h (3 Bft) SW 233 0 min 155 W/m 5,1 C -1,1 C 29,0 km/h (5 Bft)
11.11.2017 11:30 6,3 C 92 % 1002,1 hPa 0,0 l/m 14,7 km/h (3 Bft) W-SW 246 0 min 113 W/m 5,1 C 0,8 C 25,7 km/h (4 Bft)
11.11.2017 11:33 6,6 C 93 % 1001,9 hPa 0,0 l/m 14,3 km/h (3 Bft) W-SW 239 3 min 292 W/m 5,6 C 1,4 C 22,5 km/h (4 Bft)
11.11.2017 11:36 6,8 C 93 % 1001,9 hPa 0,0 l/m 15,7 km/h (3 Bft) SW 234 3 min 290 W/m 5,7 C 0,9 C 25,7 km/h (4 Bft)
11.11.2017 11:39 6,9 C 92 % 1001,9 hPa 0,0 l/m 18,1 km/h (3 Bft) SW 231 3 min 290 W/m 5,7 C 0,0 C 27,4 km/h (5 Bft)
11.11.2017 11:42 7,1 C 92 % 1001,9 hPa 0,0 l/m 16,1 km/h (3 Bft) SW 232 0 min 56 W/m 5,9 C 1,1 C 24,1 km/h (4 Bft)
11.11.2017 11:45 7,2 C 91 % 1001,9 hPa 0,0 l/m 13,8 km/h (3 Bft) SW 236 3 min 265 W/m 5,8 C 2,3 C 24,1 km/h (4 Bft)
11.11.2017 11:48 7,4 C 91 % 1001,8 hPa 0,0 l/m 10,4 km/h (2 Bft) W-SW 239 3 min 265 W/m 6,0 C 4,5 C 17,7 km/h (3 Bft)
11.11.2017 11:51 7,7 C 89 % 1001,7 hPa 0,0 l/m 11,8 km/h (2 Bft) W 270 3 min 269 W/m 6,0 C 4,0 C 20,9 km/h (4 Bft)
11.11.2017 11:54 7,9 C 87 % 1001,7 hPa 0,0 l/m 12,5 km/h (2 Bft) W-SW 238 3 min 272 W/m 5,9 C 3,8 C 20,9 km/h (4 Bft)
11.11.2017 11:57 8,1 C 86 % 1001,8 hPa 0,0 l/m 13,0 km/h (3 Bft) SW 215 3 min 281 W/m 5,9 C 3,8 C 22,5 km/h (4 Bft)
11.11.2017 12:00 8,1 C 86 % 1001,7 hPa 0,0 l/m 19,1 km/h (3 Bft) W-SW 242 3 min 309 W/m 5,9 C 1,2 C 30,6 km/h (5 Bft)
11.11.2017 12:03 7,9 C 85 % 1001,7 hPa 0,0 l/m 19,6 km/h (3 Bft) S 191 3 min 336 W/m 5,5 C 0,7 C 27,4 km/h (5 Bft)
11.11.2017 12:06 7,8 C 86 % 1001,7 hPa 0,0 l/m 18,7 km/h (3 Bft) S-SW 198 3 min 336 W/m 5,6 C 0,9 C 29,0 km/h (5 Bft)
11.11.2017 12:09 7,7 C 85 % 1001,7 hPa 0,0 l/m 18,8 km/h (3 Bft) SW 216 3 min 315 W/m 5,3 C 0,8 C 29,0 km/h (5 Bft)
11.11.2017 12:12 7,8 C 86 % 1001,7 hPa 0,0 l/m 16,6 km/h (3 Bft) W-SW 244 3 min 329 W/m 5,6 C 1,8 C 22,5 km/h (4 Bft)
11.11.2017 12:15 7,9 C 86 % 1001,7 hPa 0,0 l/m 18,6 km/h (3 Bft) SW 226 3 min 369 W/m 5,7 C 1,1 C 27,4 km/h (5 Bft)
11.11.2017 12:18 7,9 C 86 % 1001,7 hPa 0,0 l/m 18,7 km/h (3 Bft) W-SW 246 3 min 380 W/m 5,7 C 1,1 C 25,7 km/h (4 Bft)
11.11.2017 12:21 8,0 C 85 % 1001,7 hPa 0,0 l/m 19,1 km/h (3 Bft) W-SW 246 0 min 146 W/m 5,6 C 1,0 C 29,0 km/h (5 Bft)
11.11.2017 12:24 7,9 C 85 % 1001,7 hPa 0,0 l/m 19,5 km/h (3 Bft) SW 225 0 min 77 W/m 5,5 C 0,8 C 32,2 km/h (5 Bft)
11.11.2017 12:27 7,8 C 85 % 1001,7 hPa 0,0 l/m 18,2 km/h (3 Bft) SW 232 0 min 69 W/m 5,4 C 1,1 C 29,0 km/h (5 Bft)
11.11.2017 12:30 7,7 C 85 % 1001,8 hPa 0,0 l/m 20,8 km/h (4 Bft) S-SW 213 0 min 74 W/m 5,3 C 0,0 C 30,6 km/h (5 Bft)
11.11.2017 12:33 7,5 C 86 % 1001,8 hPa 0,0 l/m 17,4 km/h (3 Bft) S-SW 208 0 min 70 W/m 5,3 C 1,1 C 30,6 km/h (5 Bft)
11.11.2017 12:36 7,4 C 86 % 1001,9 hPa 0,0 l/m 19,4 km/h (3 Bft) W-SW 237 0 min 91 W/m 5,2 C 0,1 C 32,2 km/h (5 Bft)
11.11.2017 12:39 7,3 C 87 % 1001,9 hPa 0,0 l/m 17,7 km/h (3 Bft) SW 225 3 min 193 W/m 5,3 C 0,7 C 30,6 km/h (5 Bft)
11.11.2017 12:42 7,4 C 88 % 1001,9 hPa 0,0 l/m 18,5 km/h (3 Bft) W-SW 240 3 min 281 W/m 5,5 C 0,5 C 25,7 km/h (4 Bft)
11.11.2017 12:45 7,7 C 88 % 1001,9 hPa 0,0 l/m 16,2 km/h (3 Bft) W-SW 248 3 min 246 W/m 5,8 C 1,8 C 30,6 km/h (5 Bft)
11.11.2017 12:48 7,8 C 87 % 1001,8 hPa 0,0 l/m 16,5 km/h (3 Bft) W-SW 242 0 min 142 W/m 5,8 C 1,8 C 32,2 km/h (5 Bft)
11.11.2017 12:51 7,8 C 87 % 1001,9 hPa 0,0 l/m 13,3 km/h (3 Bft) SW 216 0 min 33 W/m 5,8 C 3,3 C 27,4 km/h (5 Bft)
11.11.2017 12:54 7,8 C 87 % 1001,8 hPa 0,0 l/m 16,2 km/h (3 Bft) SW 217 0 min 84 W/m 5,8 C 1,9 C 27,4 km/h (5 Bft)
11.11.2017 12:57 7,8 C 87 % 1001,8 hPa 0,0 l/m 14,8 km/h (3 Bft) W-NW 288 0 min 39 W/m 5,8 C 2,6 C 22,5 km/h (4 Bft)
11.11.2017 13:00 7,8 C 87 % 1001,7 hPa 0,0 l/m 11,9 km/h (2 Bft) W 277 0 min 47 W/m 5,8 C 4,0 C 19,3 km/h (3 Bft)
11.11.2017 13:03 7,8 C 87 % 1001,7 hPa 0,0 l/m 11,8 km/h (2 Bft) SW 230 0 min 77 W/m 5,8 C 4,1 C 19,3 km/h (3 Bft)
11.11.2017 13:06 7,9 C 87 % 1001,6 hPa 0,0 l/m 13,0 km/h (3 Bft) W-SW 249 0 min 91 W/m 5,9 C 3,6 C 19,3 km/h (3 Bft)
11.11.2017 13:09 7,9 C 87 % 1001,6 hPa 0,0 l/m 12,3 km/h (2 Bft) W-NW 283 0 min 104 W/m 5,9 C 3,9 C 24,1 km/h (4 Bft)
11.11.2017 13:12 8,2 C 84 % 1001,6 hPa 0,0 l/m 13,2 km/h (3 Bft) W-NW 288 0 min 144 W/m 5,7 C 3,8 C 22,5 km/h (4 Bft)
11.11.2017 13:15 8,4 C 83 % 1001,7 hPa 0,0 l/m 13,0 km/h (3 Bft) W-SW 257 0 min 86 W/m 5,7 C 4,1 C 25,7 km/h (4 Bft)
11.11.2017 13:18 8,6 C 83 % 1001,6 hPa 0,0 l/m 11,3 km/h (2 Bft) N-NW 347 0 min 54 W/m 5,9 C 5,3 C 22,5 km/h (4 Bft)
11.11.2017 13:21 8,6 C 83 % 1001,7 hPa 0,0 l/m 15,4 km/h (3 Bft) W-NW 291 0 min 42 W/m 5,9 C 3,3 C 33,8 km/h (5 Bft)
11.11.2017 13:24 8,4 C 83 % 1001,6 hPa 0,0 l/m 11,4 km/h (2 Bft) NW 313 0 min 67 W/m 5,7 C 5,0 C 22,5 km/h (4 Bft)
11.11.2017 13:27 8,2 C 85 % 1001,6 hPa 0,0 l/m 9,0 km/h (2 Bft) W-NW 283 3 min 213 W/m 5,8 C 6,3 C 17,7 km/h (3 Bft)
11.11.2017 13:30 8,1 C 85 % 1001,6 hPa 0,0 l/m 9,7 km/h (2 Bft) W 275 0 min 69 W/m 5,7 C 5,7 C 20,9 km/h (4 Bft)
11.11.2017 13:33 8,0 C 84 % 1001,6 hPa 0,0 l/m 9,9 km/h (2 Bft) NW 325 0 min 65 W/m 5,5 C 5,4 C 20,9 km/h (4 Bft)
11.11.2017 13:36 7,9 C 84 % 1001,6 hPa 0,0 l/m 9,9 km/h (2 Bft) W-NW 302 0 min 74 W/m 5,4 C 5,3 C 29,0 km/h (5 Bft)
11.11.2017 13:39 7,9 C 84 % 1001,5 hPa 0,0 l/m 12,8 km/h (3 Bft) W 261 0 min 97 W/m 5,4 C 3,7 C 24,1 km/h (4 Bft)
11.11.2017 13:42 7,9 C 84 % 1001,4 hPa 0,0 l/m 9,6 km/h (2 Bft) N-NW 338 0 min 95 W/m 5,4 C 5,5 C 22,5 km/h (4 Bft)
11.11.2017 13:45 7,9 C 84 % 1001,4 hPa 0,0 l/m 8,3 km/h (2 Bft) W-NW 292 0 min 76 W/m 5,4 C 6,4 C 14,5 km/h (3 Bft)
11.11.2017 13:48 8,0 C 84 % 1001,4 hPa 0,0 l/m 7,1 km/h (2 Bft) W-NW 290 0 min 69 W/m 5,5 C 7,4 C 17,7 km/h (3 Bft)
11.11.2017 13:51 8,0 C 83 % 1001,3 hPa 0,0 l/m 6,2 km/h (2 Bft) W-NW 302 0 min 83 W/m 5,3 C 8,0 C 14,5 km/h (3 Bft)
11.11.2017 13:54 8,0 C 83 % 1001,2 hPa 0,0 l/m 5,6 km/h (2 Bft) NW 309 0 min 97 W/m 5,3 C 8,0 C 11,3 km/h (2 Bft)
11.11.2017 13:57 8,1 C 82 % 1001,2 hPa 0,0 l/m 6,3 km/h (2 Bft) W-NW 288 0 min 98 W/m 5,2 C 8,1 C 14,5 km/h (3 Bft)
11.11.2017 14:00 8,2 C 83 % 1001,2 hPa 0,0 l/m 5,1 km/h (1 Bft) W 279 3 min 214 W/m 5,5 C 8,2 C 14,5 km/h (3 Bft)
11.11.2017 14:03 8,6 C 82 % 1001,1 hPa 0,0 l/m 8,7 km/h (2 Bft) W 271 3 min 232 W/m 5,7 C 6,9 C 14,5 km/h (3 Bft)
11.11.2017 14:06 8,8 C 81 % 1001,1 hPa 0,0 l/m 11,4 km/h (2 Bft) W-SW 258 0 min 125 W/m 5,7 C 5,5 C 17,7 km/h (3 Bft)
11.11.2017 14:09 8,8 C 81 % 1001,2 hPa 0,0 l/m 8,7 km/h (2 Bft) N-NW 342 0 min 49 W/m 5,7 C 7,1 C 29,0 km/h (5 Bft)
11.11.2017 14:12 8,8 C 81 % 1001,2 hPa 0,0 l/m 13,2 km/h (3 Bft) N-NW 331 0 min 35 W/m 5,7 C 4,5 C 24,1 km/h (4 Bft)
11.11.2017 14:15 8,6 C 80 % 1001,2 hPa 0,0 l/m 14,8 km/h (3 Bft) N-NW 346 0 min 28 W/m 5,3 C 3,5 C 25,7 km/h (4 Bft)
11.11.2017 14:18 8,3 C 80 % 1001,2 hPa 0,0 l/m 10,9 km/h (2 Bft) W-SW 250 0 min 39 W/m 5,1 C 5,2 C 22,5 km/h (4 Bft)
11.11.2017 14:21 8,0 C 78 % 1001,2 hPa 0,0 l/m 8,6 km/h (2 Bft) NW 313 0 min 70 W/m 4,4 C 6,3 C 16,1 km/h (3 Bft)
11.11.2017 14:24 7,9 C 78 % 1001,1 hPa 0,0 l/m 9,0 km/h (2 Bft) W-NW 301 0 min 19 W/m 4,3 C 5,9 C 19,3 km/h (3 Bft)
11.11.2017 14:27 7,8 C 77 % 1001,2 hPa 0,0 l/m 11,0 km/h (2 Bft) W 267 0 min 18 W/m 4,0 C 4,6 C 22,5 km/h (4 Bft)
11.11.2017 14:30 7,7 C 77 % 1001,2 hPa 0,0 l/m 10,0 km/h (2 Bft) W 276 0 min 16 W/m 3,9 C 5,1 C 19,3 km/h (3 Bft)
11.11.2017 14:33 7,7 C 78 % 1001,2 hPa 0,0 l/m 7,9 km/h (2 Bft) W 271 0 min 16 W/m 4,1 C 6,5 C 17,7 km/h (3 Bft)
11.11.2017 14:36 7,7 C 78 % 1001,1 hPa 0,0 l/m 9,2 km/h (2 Bft) NW 314 0 min 18 W/m 4,1 C 5,6 C 16,1 km/h (3 Bft)
11.11.2017 14:39 7,7 C 79 % 1001,2 hPa 0,0 l/m 9,2 km/h (2 Bft) W-NW 284 0 min 26 W/m 4,3 C 5,6 C 14,5 km/h (3 Bft)
11.11.2017 14:42 7,8 C 80 % 1001,2 hPa 0,0 l/m 11,1 km/h (2 Bft) W 281 0 min 93 W/m 4,6 C 4,5 C 19,3 km/h (3 Bft)
11.11.2017 14:45 7,8 C 80 % 1001,1 hPa 0,0 l/m 9,0 km/h (2 Bft) NW 305 0 min 54 W/m 4,6 C 5,8 C 17,7 km/h (3 Bft)
11.11.2017 14:48 7,9 C 81 % 1001,1 hPa 0,0 l/m 7,2 km/h (2 Bft) W-NW 286 0 min 28 W/m 4,8 C 7,3 C 14,5 km/h (3 Bft)
11.11.2017 14:51 7,9 C 81 % 1001,1 hPa 0,0 l/m 9,5 km/h (2 Bft) W 267 0 min 16 W/m 4,8 C 5,6 C 16,1 km/h (3 Bft)
11.11.2017 14:54 8,0 C 81 % 1001,1 hPa 0,0 l/m 8,5 km/h (2 Bft) W-NW 293 0 min 16 W/m 4,9 C 6,4 C 17,7 km/h (3 Bft)
11.11.2017 14:57 8,0 C 82 % 1001,1 hPa 0,0 l/m 8,3 km/h (2 Bft) W-NW 290 0 min 19 W/m 5,1 C 6,5 C 17,7 km/h (3 Bft)
11.11.2017 15:00 8,1 C 82 % 1001,2 hPa 0,0 l/m 8,0 km/h (2 Bft) SW 226 0 min 18 W/m 5,2 C 6,9 C 14,5 km/h (3 Bft)
11.11.2017 15:03 8,1 C 83 % 1001,2 hPa 0,0 l/m 7,7 km/h (2 Bft) W 263 0 min 18 W/m 5,4 C 7,1 C 17,7 km/h (3 Bft)
11.11.2017 15:06 8,1 C 83 % 1001,2 hPa 0,0 l/m 13,9 km/h (3 Bft) W 265 0 min 18 W/m 5,4 C 3,3 C 22,5 km/h (4 Bft)
11.11.2017 15:09 8,1 C 82 % 1001,1 hPa 0,0 l/m 11,1 km/h (2 Bft) SW 236 0 min 23 W/m 5,2 C 4,8 C 17,7 km/h (3 Bft)
11.11.2017 15:12 8,0 C 82 % 1001,1 hPa 0,0 l/m 11,7 km/h (2 Bft) S-SW 211 0 min 26 W/m 5,1 C 4,4 C 19,3 km/h (3 Bft)
11.11.2017 15:15 8,0 C 83 % 1001,1 hPa 0,0 l/m 13,5 km/h (3 Bft) W 268 0 min 23 W/m 5,3 C 3,4 C 25,7 km/h (4 Bft)
11.11.2017 15:18 8,0 C 83 % 1001,2 hPa 0,0 l/m 12,7 km/h (3 Bft) NW 313 0 min 18 W/m 5,3 C 3,8 C 20,9 km/h (4 Bft)
11.11.2017 15:21 7,9 C 83 % 1001,2 hPa 0,0 l/m 10,0 km/h (2 Bft) W 265 0 min 11 W/m 5,2 C 5,3 C 20,9 km/h (4 Bft)
11.11.2017 15:24 7,9 C 83 % 1001,2 hPa 0,0 l/m 7,6 km/h (2 Bft) W-SW 248 0 min 9 W/m 5,2 C 7,0 C 14,5 km/h (3 Bft)
11.11.2017 15:27 7,9 C 83 % 1001,2 hPa 0,0 l/m 8,8 km/h (2 Bft) W 266 0 min 11 W/m 5,2 C 6,1 C 19,3 km/h (3 Bft)
11.11.2017 15:30 7,8 C 83 % 1001,2 hPa 0,0 l/m 3,3 km/h (1 Bft) W 270 0 min 18 W/m 5,1 C 7,8 C 11,3 km/h (2 Bft)
11.11.2017 15:33 7,8 C 84 % 1001,3 hPa 0,0 l/m 4,9 km/h (1 Bft) NW 318 0 min 12 W/m 5,3 C 7,8 C 9,7 km/h (2 Bft)
11.11.2017 15:36 7,8 C 84 % 1001,2 hPa 0,0 l/m 4,7 km/h (1 Bft) W-NW 284 0 min 9 W/m 5,3 C 7,8 C 11,3 km/h (2 Bft)
11.11.2017 15:39 7,8 C 84 % 1001,2 hPa 0,0 l/m 5,6 km/h (2 Bft) W-NW 288 0 min 9 W/m 5,3 C 7,8 C 12,9 km/h (3 Bft)
11.11.2017 15:42 7,7 C 84 % 1001,2 hPa 0,0 l/m 6,4 km/h (2 Bft) W 281 0 min 9 W/m 5,2 C 7,7 C 16,1 km/h (3 Bft)
11.11.2017 15:45 7,7 C 83 % 1001,1 hPa 0,0 l/m 6,6 km/h (2 Bft) NW 324 0 min 7 W/m 5,0 C 7,6 C 14,5 km/h (3 Bft)
11.11.2017 15:48 7,7 C 83 % 1001,2 hPa 0,0 l/m 8,1 km/h (2 Bft) W 273 0 min 7 W/m 5,0 C 6,4 C 17,7 km/h (3 Bft)
11.11.2017 15:51 7,8 C 82 % 1001,3 hPa 0,0 l/m 10,5 km/h (2 Bft) W 275 0 min 0 W/m 4,9 C 4,9 C 19,3 km/h (3 Bft)
11.11.2017 15:54 7,9 C 82 % 1001,3 hPa 0,0 l/m 12,0 km/h (2 Bft) W-SW 254 0 min 0 W/m 5,0 C 4,1 C 22,5 km/h (4 Bft)
11.11.2017 15:57 7,9 C 83 % 1001,3 hPa 0,0 l/m 9,9 km/h (2 Bft) SW 227 0 min 0 W/m 5,2 C 5,3 C 19,3 km/h (3 Bft)
11.11.2017 16:00 7,9 C 83 % 1001,3 hPa 0,0 l/m 7,8 km/h (2 Bft) N-NW 336 0 min 5 W/m 5,2 C 6,8 C 16,1 km/h (3 Bft)
11.11.2017 16:03 7,8 C 83 % 1001,2 hPa 0,0 l/m 14,4 km/h (3 Bft) N 351 0 min 5 W/m 5,1 C 2,7 C 25,7 km/h (4 Bft)
11.11.2017 16:06 7,7 C 83 % 1001,2 hPa 0,0 l/m 8,6 km/h (2 Bft) N-NW 331 0 min 5 W/m 5,0 C 6,0 C 12,9 km/h (3 Bft)
11.11.2017 16:09 7,6 C 83 % 1001,2 hPa 0,0 l/m 9,2 km/h (2 Bft) NW 321 0 min 5 W/m 4,9 C 5,5 C 16,1 km/h (3 Bft)
11.11.2017 16:12 7,6 C 83 % 1001,2 hPa 0,0 l/m 16,3 km/h (3 Bft) N-NW 332 0 min 5 W/m 4,9 C 1,6 C 32,2 km/h (5 Bft)
11.11.2017 16:15 7,5 C 81 % 1001,2 hPa 0,0 l/m 13,0 km/h (3 Bft) N-NW 330 0 min 5 W/m 4,5 C 3,1 C 24,1 km/h (4 Bft)
11.11.2017 16:18 7,5 C 80 % 1001,2 hPa 0,0 l/m 10,4 km/h (2 Bft) W-NW 296 0 min 5 W/m 4,3 C 4,6 C 24,1 km/h (4 Bft)
11.11.2017 16:21 7,5 C 80 % 1001,2 hPa 0,0 l/m 8,6 km/h (2 Bft) W-NW 294 0 min 5 W/m 4,3 C 5,8 C 22,5 km/h (4 Bft)
11.11.2017 16:24 7,6 C 80 % 1001,2 hPa 0,0 l/m 10,3 km/h (2 Bft) W 275 0 min 0 W/m 4,4 C 4,8 C 29,0 km/h (5 Bft)
11.11.2017 16:27 7,6 C 80 % 1001,2 hPa 0,0 l/m 13,9 km/h (3 Bft) W-NW 298 0 min 0 W/m 4,4 C 2,8 C 25,7 km/h (4 Bft)
11.11.2017 16:30 7,7 C 80 % 1001,2 hPa 0,0 l/m 11,8 km/h (2 Bft) W 262 0 min 0 W/m 4,5 C 4,0 C 24,1 km/h (4 Bft)
11.11.2017 16:33 7,7 C 81 % 1001,3 hPa 0,0 l/m 11,4 km/h (2 Bft) W 279 0 min 0 W/m 4,7 C 4,2 C 24,1 km/h (4 Bft)
11.11.2017 16:36 7,7 C 81 % 1001,2 hPa 0,0 l/m 15,2 km/h (3 Bft) W-SW 251 0 min 0 W/m 4,7 C 2,3 C 27,4 km/h (5 Bft)
11.11.2017 16:39 7,7 C 80 % 1001,2 hPa 0,0 l/m 12,4 km/h (2 Bft) W-SW 244 0 min 0 W/m 4,5 C 3,6 C 25,7 km/h (4 Bft)
11.11.2017 16:42 7,7 C 80 % 1001,2 hPa 0,0 l/m 13,1 km/h (3 Bft) W-NW 288 0 min 0 W/m 4,5 C 3,3 C 22,5 km/h (4 Bft)
11.11.2017 16:45 7,7 C 80 % 1001,2 hPa 0,0 l/m 12,0 km/h (2 Bft) W 261 0 min 0 W/m 4,5 C 3,9 C 24,1 km/h (4 Bft)
11.11.2017 16:48 7,7 C 80 % 1001,2 hPa 0,0 l/m 15,1 km/h (3 Bft) W 280 0 min 0 W/m 4,5 C 2,3 C 24,1 km/h (4 Bft)
11.11.2017 16:51 7,7 C 80 % 1001,2 hPa 0,0 l/m 12,4 km/h (2 Bft) W 272 0 min 0 W/m 4,5 C 3,6 C 25,7 km/h (4 Bft)
11.11.2017 16:54 7,7 C 80 % 1001,1 hPa 0,0 l/m 12,3 km/h (2 Bft) W-NW 294 0 min 0 W/m 4,5 C 3,7 C 24,1 km/h (4 Bft)
11.11.2017 16:57 7,7 C 80 % 1001,0 hPa 0,0 l/m 14,0 km/h (3 Bft) W 269 0 min 0 W/m 4,5 C 2,8 C 27,4 km/h (5 Bft)
11.11.2017 17:00 7,7 C 80 % 1001,1 hPa 0,0 l/m 15,1 km/h (3 Bft) W-SW 258 0 min 0 W/m 4,5 C 2,3 C 27,4 km/h (5 Bft)
11.11.2017 17:03 7,7 C 80 % 1001,2 hPa 0,0 l/m 11,1 km/h (2 Bft) W 271 0 min 0 W/m 4,5 C 4,4 C 27,4 km/h (5 Bft)
11.11.2017 17:06 7,7 C 80 % 1001,2 hPa 0,0 l/m 6,1 km/h (2 Bft) W-SW 257 0 min 0 W/m 4,5 C 7,7 C 14,5 km/h (3 Bft)
11.11.2017 17:09 7,6 C 81 % 1001,1 hPa 0,0 l/m 14,3 km/h (3 Bft) W 275 0 min 0 W/m 4,6 C 2,6 C 25,7 km/h (4 Bft)
11.11.2017 17:12 7,6 C 81 % 1001,2 hPa 0,0 l/m 9,2 km/h (2 Bft) W 275 0 min 0 W/m 4,6 C 5,5 C 20,9 km/h (4 Bft)
11.11.2017 17:15 7,6 C 82 % 1001,2 hPa 0,0 l/m 11,0 km/h (2 Bft) W 278 0 min 0 W/m 4,7 C 4,3 C 19,3 km/h (3 Bft)
11.11.2017 17:18 7,5 C 82 % 1001,2 hPa 0,0 l/m 9,6 km/h (2 Bft) W-NW 288 0 min 0 W/m 4,6 C 5,1 C 19,3 km/h (3 Bft)
11.11.2017 17:21 7,5 C 82 % 1001,2 hPa 0,0 l/m 12,0 km/h (2 Bft) W 281 0 min 0 W/m 4,6 C 3,6 C 20,9 km/h (4 Bft)
11.11.2017 17:24 7,5 C 83 % 1001,2 hPa 0,0 l/m 8,6 km/h (2 Bft) NW 307 0 min 0 W/m 4,8 C 5,8 C 16,1 km/h (3 Bft)
11.11.2017 17:27 7,5 C 83 % 1001,2 hPa 0,0 l/m 8,3 km/h (2 Bft) W 261 0 min 0 W/m 4,8 C 6,0 C 12,9 km/h (3 Bft)
11.11.2017 17:30 7,5 C 83 % 1001,3 hPa 0,0 l/m 5,1 km/h (1 Bft) N 355 0 min 0 W/m 4,8 C 7,5 C 14,5 km/h (3 Bft)
11.11.2017 17:33 7,5 C 83 % 1001,2 hPa 0,0 l/m 7,2 km/h (2 Bft) N-NW 329 0 min 0 W/m 4,8 C 6,9 C 16,1 km/h (3 Bft)
11.11.2017 17:36 7,4 C 83 % 1001,2 hPa 0,0 l/m 11,4 km/h (2 Bft) W 265 0 min 0 W/m 4,7 C 3,9 C 20,9 km/h (4 Bft)
11.11.2017 17:39 7,4 C 82 % 1001,2 hPa 0,0 l/m 13,4 km/h (3 Bft) NW 309 0 min 0 W/m 4,5 C 2,8 C 27,4 km/h (5 Bft)
11.11.2017 17:42 7,4 C 81 % 1001,2 hPa 0,0 l/m 15,3 km/h (3 Bft) W-NW 290 0 min 0 W/m 4,4 C 1,8 C 25,7 km/h (4 Bft)
11.11.2017 17:45 7,4 C 80 % 1001,2 hPa 0,0 l/m 13,9 km/h (3 Bft) NW 323 0 min 0 W/m 4,2 C 2,5 C 25,7 km/h (4 Bft)
11.11.2017 17:48 7,6 C 80 % 1001,2 hPa 0,0 l/m 14,5 km/h (3 Bft) N-NW 329 0 min 0 W/m 4,4 C 2,5 C 27,4 km/h (5 Bft)
11.11.2017 17:51 7,7 C 81 % 1001,2 hPa 0,2 l/m 10,2 km/h (2 Bft) NW 319 0 min 0 W/m 4,7 C 4,9 C 22,5 km/h (4 Bft)
11.11.2017 17:54 7,7 C 81 % 1001,2 hPa 0,0 l/m 8,0 km/h (2 Bft) W 281 0 min 0 W/m 4,7 C 6,4 C 14,5 km/h (3 Bft)
11.11.2017 17:57 7,7 C 81 % 1001,3 hPa 0,0 l/m 7,1 km/h (2 Bft) W-NW 293 0 min 0 W/m 4,7 C 7,1 C 14,5 km/h (3 Bft)
11.11.2017 18:00 7,7 C 81 % 1001,3 hPa 0,0 l/m 12,6 km/h (3 Bft) NW 323 0 min 0 W/m 4,7 C 3,5 C 20,9 km/h (4 Bft)
11.11.2017 18:03 7,7 C 80 % 1001,4 hPa 0,0 l/m 14,3 km/h (3 Bft) N 355 0 min 0 W/m 4,5 C 2,7 C 27,4 km/h (5 Bft)
11.11.2017 18:06 7,7 C 80 % 1001,4 hPa 0,0 l/m 15,6 km/h (3 Bft) NW 319 0 min 0 W/m 4,5 C 2,1 C 24,1 km/h (4 Bft)
11.11.2017 18:09 7,7 C 79 % 1001,5 hPa 0,0 l/m 17,7 km/h (3 Bft) N-NW 327 0 min 0 W/m 4,3 C 1,2 C 33,8 km/h (5 Bft)
11.11.2017 18:12 7,7 C 79 % 1001,5 hPa 0,0 l/m 21,8 km/h (4 Bft) W-NW 302 0 min 0 W/m 4,3 C -0,3 C 33,8 km/h (5 Bft)
11.11.2017 18:15 7,7 C 79 % 1001,5 hPa 0,0 l/m 17,4 km/h (3 Bft) N-NW 337 0 min 0 W/m 4,3 C 1,3 C 29,0 km/h (5 Bft)
11.11.2017 18:18 7,7 C 79 % 1001,4 hPa 0,0 l/m 17,8 km/h (3 Bft) W-NW 294 0 min 0 W/m 4,3 C 1,1 C 33,8 km/h (5 Bft)
11.11.2017 18:21 7,7 C 79 % 1001,5 hPa 0,0 l/m 13,3 km/h (3 Bft) NW 313 0 min 0 W/m 4,3 C 3,2 C 25,7 km/h (4 Bft)
11.11.2017 18:24 7,6 C 79 % 1001,5 hPa 0,0 l/m 13,3 km/h (3 Bft) N-NW 348 0 min 0 W/m 4,2 C 3,1 C 27,4 km/h (5 Bft)
11.11.2017 18:27 7,6 C 79 % 1001,5 hPa 0,0 l/m 12,0 km/h (2 Bft) W-SW 239 0 min 0 W/m 4,2 C 3,8 C 19,3 km/h (3 Bft)
11.11.2017 18:30 7,6 C 79 % 1001,6 hPa 0,0 l/m 13,8 km/h (3 Bft) N 360 0 min 0 W/m 4,2 C 2,8 C 20,9 km/h (4 Bft)
11.11.2017 18:33 7,5 C 79 % 1001,7 hPa 0,0 l/m 10,9 km/h (2 Bft) N-NW 332 0 min 0 W/m 4,1 C 4,3 C 19,3 km/h (3 Bft)
11.11.2017 18:36 7,5 C 79 % 1001,6 hPa 0,0 l/m 9,9 km/h (2 Bft) NW 311 0 min 0 W/m 4,1 C 4,9 C 17,7 km/h (3 Bft)
11.11.2017 18:39 7,4 C 79 % 1001,7 hPa 0,0 l/m 9,0 km/h (2 Bft) S 189 0 min 0 W/m 4,0 C 5,4 C 17,7 km/h (3 Bft)
11.11.2017 18:42 7,4 C 79 % 1001,7 hPa 0,0 l/m 9,4 km/h (2 Bft) W-NW 289 0 min 0 W/m 4,0 C 5,1 C 16,1 km/h (3 Bft)
11.11.2017 18:45 7,4 C 79 % 1001,7 hPa 0,0 l/m 9,5 km/h (2 Bft) NW 308 0 min 0 W/m 4,0 C 5,1 C 17,7 km/h (3 Bft)
11.11.2017 18:48 7,4 C 79 % 1001,7 hPa 0,0 l/m 9,9 km/h (2 Bft) W-SW 258 0 min 0 W/m 4,0 C 4,8 C 17,7 km/h (3 Bft)
11.11.2017 18:51 7,4 C 79 % 1001,7 hPa 0,0 l/m 9,1 km/h (2 Bft) NW 320 0 min 0 W/m 4,0 C 5,3 C 17,7 km/h (3 Bft)
11.11.2017 18:54 7,4 C 78 % 1001,7 hPa 0,0 l/m 11,6 km/h (2 Bft) W-NW 286 0 min 0 W/m 3,8 C 3,7 C 22,5 km/h (4 Bft)
11.11.2017 18:57 7,4 C 78 % 1001,8 hPa 0,0 l/m 8,5 km/h (2 Bft) N 355 0 min 0 W/m 3,8 C 5,8 C 16,1 km/h (3 Bft)
11.11.2017 19:00 7,4 C 78 % 1001,8 hPa 0,0 l/m 7,9 km/h (2 Bft) W-NW 303 0 min 0 W/m 3,8 C 6,2 C 16,1 km/h (3 Bft)
11.11.2017 19:03 7,4 C 78 % 1001,8 hPa 0,0 l/m 8,0 km/h (2 Bft) W 270 0 min 0 W/m 3,8 C 6,1 C 16,1 km/h (3 Bft)
11.11.2017 19:06 7,5 C 78 % 1001,8 hPa 0,0 l/m 12,4 km/h (2 Bft) W-NW 294 0 min 0 W/m 3,9 C 3,4 C 25,7 km/h (4 Bft)
11.11.2017 19:09 7,6 C 78 % 1001,8 hPa 0,0 l/m 13,3 km/h (3 Bft) N-NW 343 0 min 0 W/m 4,0 C 3,1 C 24,1 km/h (4 Bft)
11.11.2017 19:12 7,7 C 79 % 1001,8 hPa 0,0 l/m 8,9 km/h (2 Bft) N 5 0 min 0 W/m 4,3 C 5,8 C 16,1 km/h (3 Bft)
11.11.2017 19:15 7,7 C 80 % 1001,9 hPa 0,0 l/m 13,0 km/h (3 Bft) N 360 0 min 0 W/m 4,5 C 3,3 C 19,3 km/h (3 Bft)
11.11.2017 19:18 7,8 C 80 % 1002,0 hPa 0,0 l/m 11,4 km/h (2 Bft) N 355 0 min 0 W/m 4,6 C 4,3 C 24,1 km/h (4 Bft)
11.11.2017 19:21 7,8 C 80 % 1002,1 hPa 0,0 l/m 18,3 km/h (3 Bft) W-NW 302 0 min 0 W/m 4,6 C 1,1 C 30,6 km/h (5 Bft)
11.11.2017 19:24 7,8 C 80 % 1002,1 hPa 0,0 l/m 20,7 km/h (4 Bft) N-NO 14 0 min 0 W/m 4,6 C 0,2 C 35,4 km/h (5 Bft)
11.11.2017 19:27 7,7 C 80 % 1002,2 hPa 0,0 l/m 17,4 km/h (3 Bft) NW 311 0 min 0 W/m 4,5 C 1,3 C 32,2 km/h (5 Bft)
11.11.2017 19:30 7,6 C 80 % 1002,1 hPa 0,0 l/m 12,3 km/h (2 Bft) N 355 0 min 0 W/m 4,4 C 3,6 C 25,7 km/h (4 Bft)
11.11.2017 19:33 7,5 C 80 % 1002,1 hPa 0,0 l/m 18,1 km/h (3 Bft) N-NW 331 0 min 0 W/m 4,3 C 0,8 C 27,4 km/h (5 Bft)
11.11.2017 19:36 7,3 C 79 % 1002,2 hPa 0,0 l/m 13,9 km/h (3 Bft) N-NW 328 0 min 0 W/m 3,9 C 2,4 C 22,5 km/h (4 Bft)
11.11.2017 19:39 7,3 C 79 % 1002,2 hPa 0,0 l/m 12,6 km/h (3 Bft) NW 304 0 min 0 W/m 3,9 C 3,1 C 22,5 km/h (4 Bft)
11.11.2017 19:42 7,2 C 79 % 1002,2 hPa 0,0 l/m 13,4 km/h (3 Bft) N-NW 332 0 min 0 W/m 3,8 C 2,5 C 20,9 km/h (4 Bft)
11.11.2017 19:45 7,1 C 79 % 1002,2 hPa 0,0 l/m 15,2 km/h (3 Bft) NW 316 0 min 0 W/m 3,7 C 1,5 C 27,4 km/h (5 Bft)
11.11.2017 19:48 7,1 C 78 % 1002,3 hPa 0,0 l/m 14,6 km/h (3 Bft) N-NW 337 0 min 0 W/m 3,5 C 1,8 C 24,1 km/h (4 Bft)
11.11.2017 19:51 7,1 C 78 % 1002,3 hPa 0,0 l/m 14,6 km/h (3 Bft) NW 323 0 min 0 W/m 3,5 C 1,8 C 27,4 km/h (5 Bft)
11.11.2017 19:54 7,1 C 79 % 1002,3 hPa 0,0 l/m 12,8 km/h (3 Bft) W-NW 294 0 min 0 W/m 3,7 C 2,7 C 22,5 km/h (4 Bft)
11.11.2017 19:57 7,1 C 79 % 1002,4 hPa 0,0 l/m 9,4 km/h (2 Bft) NW 312 0 min 0 W/m 3,7 C 4,8 C 17,7 km/h (3 Bft)
11.11.2017 20:00 7,1 C 79 % 1002,4 hPa 0,0 l/m 8,4 km/h (2 Bft) SW 228 0 min 0 W/m 3,7 C 5,5 C 22,5 km/h (4 Bft)
11.11.2017 20:03 7,1 C 79 % 1002,4 hPa 0,0 l/m 13,2 km/h (3 Bft) NW 311 0 min 0 W/m 3,7 C 2,5 C 24,1 km/h (4 Bft)
11.11.2017 20:06 7,2 C 79 % 1002,5 hPa 0,0 l/m 13,5 km/h (3 Bft) W-SW 254 0 min 0 W/m 3,8 C 2,5 C 29,0 km/h (5 Bft)
11.11.2017 20:09 7,2 C 79 % 1002,6 hPa 0,0 l/m 11,3 km/h (2 Bft) W 266 0 min 0 W/m 3,8 C 3,7 C 20,9 km/h (4 Bft)
11.11.2017 20:12 7,2 C 79 % 1002,8 hPa 0,0 l/m 12,9 km/h (3 Bft) NW 316 0 min 0 W/m 3,8 C 2,8 C 25,7 km/h (4 Bft)
11.11.2017 20:15 7,2 C 80 % 1002,7 hPa 0,0 l/m 20,1 km/h (4 Bft) NW 313 0 min 0 W/m 4,0 C -0,4 C 30,6 km/h (5 Bft)
11.11.2017 20:18 7,1 C 80 % 1002,7 hPa 0,0 l/m 15,8 km/h (3 Bft) N-NW 329 0 min 0 W/m 3,9 C 1,3 C 27,4 km/h (5 Bft)
11.11.2017 20:21 7,1 C 81 % 1002,6 hPa 0,0 l/m 14,3 km/h (3 Bft) NW 317 0 min 0 W/m 4,1 C 2,0 C 24,1 km/h (4 Bft)
11.11.2017 20:24 6,9 C 81 % 1002,6 hPa 0,0 l/m 8,5 km/h (2 Bft) N-NW 334 0 min 0 W/m 3,9 C 5,2 C 17,7 km/h (3 Bft)
11.11.2017 20:27 6,9 C 81 % 1002,5 hPa 0,0 l/m 7,7 km/h (2 Bft) NW 315 0 min 0 W/m 3,9 C 5,8 C 14,5 km/h (3 Bft)
11.11.2017 20:30 6,8 C 81 % 1002,6 hPa 0,0 l/m 6,8 km/h (2 Bft) N 349 0 min 0 W/m 3,8 C 6,5 C 12,9 km/h (3 Bft)
11.11.2017 20:33 6,8 C 81 % 1002,6 hPa 0,0 l/m 6,7 km/h (2 Bft) W-NW 298 0 min 0 W/m 3,8 C 6,6 C 14,5 km/h (3 Bft)
11.11.2017 20:36 6,7 C 81 % 1002,6 hPa 0,0 l/m 6,1 km/h (2 Bft) NW 304 0 min 0 W/m 3,7 C 6,7 C 12,9 km/h (3 Bft)
11.11.2017 20:39 6,7 C 81 % 1002,5 hPa 0,0 l/m 3,5 km/h (1 Bft) W 279 0 min 0 W/m 3,7 C 6,7 C 9,7 km/h (2 Bft)
11.11.2017 20:42 6,6 C 81 % 1002,6 hPa 0,0 l/m 4,8 km/h (1 Bft) W-NW 292 0 min 0 W/m 3,6 C 6,6 C 14,5 km/h (3 Bft)
11.11.2017 20:45 6,6 C 81 % 1002,6 hPa 0,0 l/m 5,9 km/h (2 Bft) W-NW 292 0 min 0 W/m 3,6 C 6,6 C 17,7 km/h (3 Bft)
11.11.2017 20:48 6,6 C 82 % 1002,7 hPa 0,0 l/m 9,7 km/h (2 Bft) N 5 0 min 0 W/m 3,8 C 4,0 C 20,9 km/h (4 Bft)
11.11.2017 20:51 6,6 C 82 % 1002,8 hPa 0,0 l/m 12,8 km/h (3 Bft) W-NW 289 0 min 0 W/m 3,8 C 2,1 C 30,6 km/h (5 Bft)
11.11.2017 20:54 6,7 C 82 % 1002,6 hPa 0,2 l/m 11,5 km/h (2 Bft) W 273 0 min 0 W/m 3,8 C 3,0 C 27,4 km/h (5 Bft)
11.11.2017 20:57 6,6 C 82 % 1002,5 hPa 0,0 l/m 10,7 km/h (2 Bft) W 273 0 min 0 W/m 3,8 C 3,4 C 20,9 km/h (4 Bft)
11.11.2017 21:00 6,6 C 81 % 1002,5 hPa 0,0 l/m 9,7 km/h (2 Bft) N-NW 348 0 min 0 W/m 3,6 C 4,0 C 17,7 km/h (3 Bft)
11.11.2017 21:03 6,5 C 81 % 1002,5 hPa 0,0 l/m 10,1 km/h (2 Bft) W-SW 252 0 min 0 W/m 3,5 C 3,7 C 24,1 km/h (4 Bft)
11.11.2017 21:06 6,4 C 80 % 1002,5 hPa 0,0 l/m 11,5 km/h (2 Bft) W 274 0 min 0 W/m 3,2 C 2,7 C 20,9 km/h (4 Bft)
11.11.2017 21:09 6,4 C 80 % 1002,5 hPa 0,0 l/m 9,5 km/h (2 Bft) W-NW 298 0 min 0 W/m 3,2 C 4,0 C 19,3 km/h (3 Bft)
11.11.2017 21:12 6,6 C 81 % 1002,4 hPa 0,0 l/m 12,1 km/h (2 Bft) W-NW 283 0 min 0 W/m 3,6 C 2,5 C 24,1 km/h (4 Bft)
11.11.2017 21:15 6,6 C 81 % 1002,4 hPa 0,0 l/m 9,4 km/h (2 Bft) W 261 0 min 0 W/m 3,6 C 4,2 C 20,9 km/h (4 Bft)
11.11.2017 21:18 6,7 C 81 % 1002,4 hPa 0,0 l/m 8,9 km/h (2 Bft) W 264 0 min 0 W/m 3,7 C 4,7 C 17,7 km/h (3 Bft)
11.11.2017 21:21 6,8 C 81 % 1002,5 hPa 0,0 l/m 8,8 km/h (2 Bft) W 277 0 min 0 W/m 3,8 C 4,9 C 17,7 km/h (3 Bft)
11.11.2017 21:24 6,8 C 82 % 1002,5 hPa 0,0 l/m 10,3 km/h (2 Bft) W-NW 283 0 min 0 W/m 3,9 C 3,9 C 20,9 km/h (4 Bft)
11.11.2017 21:27 6,8 C 82 % 1002,5 hPa 0,0 l/m 7,7 km/h (2 Bft) W 263 0 min 0 W/m 3,9 C 5,7 C 12,9 km/h (3 Bft)
11.11.2017 21:30 6,9 C 82 % 1002,5 hPa 0,0 l/m 9,3 km/h (2 Bft) W 259 0 min 0 W/m 4,0 C 4,6 C 16,1 km/h (3 Bft)
11.11.2017 21:33 6,9 C 83 % 1002,5 hPa 0,0 l/m 6,0 km/h (2 Bft) W-NW 287 0 min 0 W/m 4,2 C 6,9 C 12,9 km/h (3 Bft)
11.11.2017 21:36 6,9 C 83 % 1002,6 hPa 0,0 l/m 8,0 km/h (2 Bft) W-NW 293 0 min 0 W/m 4,2 C 5,6 C 19,3 km/h (3 Bft)
11.11.2017 21:39 6,9 C 83 % 1002,7 hPa 0,0 l/m 15,1 km/h (3 Bft) N-NW 327 0 min 0 W/m 4,2 C 1,3 C 32,2 km/h (5 Bft)
11.11.2017 21:42 7,1 C 84 % 1002,7 hPa 0,0 l/m 15,3 km/h (3 Bft) N-NW 339 0 min 0 W/m 4,6 C 1,5 C 25,7 km/h (4 Bft)
11.11.2017 21:45 7,1 C 84 % 1002,7 hPa 0,0 l/m 13,7 km/h (3 Bft) N-NW 327 0 min 0 W/m 4,6 C 2,3 C 24,1 km/h (4 Bft)
11.11.2017 21:48 7,1 C 84 % 1002,7 hPa 0,0 l/m 13,9 km/h (3 Bft) W-NW 294 0 min 0 W/m 4,6 C 2,2 C 24,1 km/h (4 Bft)
11.11.2017 21:51 7,1 C 84 % 1002,7 hPa 0,0 l/m 11,0 km/h (2 Bft) N-NW 348 0 min 0 W/m 4,6 C 3,8 C 20,9 km/h (4 Bft)
11.11.2017 21:54 7,1 C 83 % 1002,7 hPa 0,0 l/m 14,0 km/h (3 Bft) NW 325 0 min 0 W/m 4,4 C 2,1 C 24,1 km/h (4 Bft)
11.11.2017 21:57 7,1 C 83 % 1002,8 hPa 0,0 l/m 10,2 km/h (2 Bft) NW 317 0 min 0 W/m 4,4 C 4,3 C 16,1 km/h (3 Bft)
11.11.2017 22:00 7,0 C 83 % 1002,8 hPa 0,0 l/m 13,4 km/h (3 Bft) NW 323 0 min 0 W/m 4,3 C 2,3 C 22,5 km/h (4 Bft)
11.11.2017 22:03 7,0 C 82 % 1002,7 hPa 0,0 l/m 13,2 km/h (3 Bft) W-NW 302 0 min 0 W/m 4,1 C 2,4 C 25,7 km/h (4 Bft)
11.11.2017 22:06 7,0 C 81 % 1002,8 hPa 0,0 l/m 10,7 km/h (2 Bft) N-NW 347 0 min 0 W/m 4,0 C 3,8 C 19,3 km/h (3 Bft)
11.11.2017 22:09 7,1 C 82 % 1002,8 hPa 0,0 l/m 10,0 km/h (2 Bft) NW 304 0 min 0 W/m 4,2 C 4,4 C 22,5 km/h (4 Bft)
11.11.2017 22:12 7,1 C 82 % 1002,9 hPa 0,0 l/m 12,9 km/h (3 Bft) N-NW 334 0 min 0 W/m 4,2 C 2,7 C 20,9 km/h (4 Bft)
11.11.2017 22:15 7,2 C 82 % 1002,9 hPa 0,0 l/m 12,8 km/h (3 Bft) NW 323 0 min 0 W/m 4,3 C 2,8 C 22,5 km/h (4 Bft)
11.11.2017 22:18 7,2 C 82 % 1003,1 hPa 0,0 l/m 13,4 km/h (3 Bft) NW 317 0 min 0 W/m 4,3 C 2,5 C 22,5 km/h (4 Bft)
11.11.2017 22:21 7,2 C 81 % 1003,1 hPa 0,0 l/m 14,1 km/h (3 Bft) NW 311 0 min 0 W/m 4,2 C 2,2 C 25,7 km/h (4 Bft)
11.11.2017 22:24 7,2 C 81 % 1003,1 hPa 0,0 l/m 18,6 km/h (3 Bft) W-NW 296 0 min 0 W/m 4,2 C 0,2 C 30,6 km/h (5 Bft)
11.11.2017 22:27 7,2 C 82 % 1003,0 hPa 0,0 l/m 16,2 km/h (3 Bft) NW 310 0 min 0 W/m 4,3 C 1,2 C 29,0 km/h (5 Bft)
11.11.2017 22:30 7,1 C 82 % 1002,9 hPa 0,0 l/m 11,5 km/h (2 Bft) N-NW 347 0 min 0 W/m 4,2 C 3,5 C 19,3 km/h (3 Bft)
11.11.2017 22:33 7,0 C 83 % 1002,9 hPa 0,0 l/m 9,6 km/h (2 Bft) N 355 0 min 0 W/m 4,3 C 4,5 C 17,7 km/h (3 Bft)
11.11.2017 22:36 6,9 C 83 % 1002,8 hPa 0,0 l/m 7,4 km/h (2 Bft) NW 325 0 min 0 W/m 4,2 C 6,1 C 16,1 km/h (3 Bft)
11.11.2017 22:39 6,8 C 83 % 1002,8 hPa 0,0 l/m 4,6 km/h (1 Bft) NW 306 0 min 0 W/m 4,1 C 6,8 C 12,9 km/h (3 Bft)
11.11.2017 22:42 6,7 C 83 % 1002,8 hPa 0,0 l/m 2,6 km/h (1 Bft) NW 321 0 min 0 W/m 4,0 C 6,7 C 9,7 km/h (2 Bft)
11.11.2017 22:45 6,7 C 83 % 1002,9 hPa 0,0 l/m 2,8 km/h (1 Bft) W-NW 295 0 min 0 W/m 4,0 C 6,7 C 8,0 km/h (2 Bft)
11.11.2017 22:48 6,7 C 83 % 1002,8 hPa 0,0 l/m 2,7 km/h (1 Bft) W 275 0 min 0 W/m 4,0 C 6,7 C 9,7 km/h (2 Bft)
11.11.2017 22:51 6,6 C 83 % 1002,8 hPa 0,0 l/m 3,1 km/h (1 Bft) W 275 0 min 0 W/m 3,9 C 6,6 C 6,4 km/h (2 Bft)
11.11.2017 22:54 6,5 C 83 % 1002,8 hPa 0,0 l/m 3,9 km/h (1 Bft) W 275 0 min 0 W/m 3,8 C 6,5 C 9,7 km/h (2 Bft)
11.11.2017 22:57 6,4 C 83 % 1002,8 hPa 0,0 l/m 4,1 km/h (1 Bft) W 267 0 min 0 W/m 3,7 C 6,4 C 6,4 km/h (2 Bft)
11.11.2017 23:00 6,4 C 83 % 1002,8 hPa 0,0 l/m 5,5 km/h (2 Bft) W-SW 257 0 min 0 W/m 3,7 C 6,4 C 11,3 km/h (2 Bft)
11.11.2017 23:03 6,3 C 84 % 1002,8 hPa 0,0 l/m 3,6 km/h (1 Bft) W-SW 244 0 min 0 W/m 3,8 C 6,3 C 8,0 km/h (2 Bft)
11.11.2017 23:06 6,3 C 84 % 1002,8 hPa 0,0 l/m 4,2 km/h (1 Bft) W 269 0 min 0 W/m 3,8 C 6,3 C 8,0 km/h (2 Bft)
11.11.2017 23:09 6,2 C 84 % 1002,9 hPa 0,0 l/m 6,5 km/h (2 Bft) W-SW 255 0 min 0 W/m 3,7 C 6,1 C 14,5 km/h (3 Bft)
11.11.2017 23:12 6,2 C 84 % 1002,8 hPa 0,0 l/m 5,9 km/h (2 Bft) W 259 0 min 0 W/m 3,7 C 6,2 C 12,9 km/h (3 Bft)
11.11.2017 23:15 6,2 C 84 % 1002,8 hPa 0,0 l/m 7,8 km/h (2 Bft) W-SW 257 0 min 0 W/m 3,7 C 5,0 C 16,1 km/h (3 Bft)
11.11.2017 23:18 6,3 C 85 % 1002,8 hPa 0,0 l/m 9,5 km/h (2 Bft) W-SW 252 0 min 0 W/m 4,0 C 3,9 C 19,3 km/h (3 Bft)
11.11.2017 23:21 6,3 C 85 % 1002,9 hPa 0,0 l/m 10,3 km/h (2 Bft) W 280 0 min 0 W/m 4,0 C 3,3 C 19,3 km/h (3 Bft)
11.11.2017 23:24 6,4 C 85 % 1002,8 hPa 0,0 l/m 7,3 km/h (2 Bft) W-SW 254 0 min 0 W/m 4,1 C 5,6 C 16,1 km/h (3 Bft)
11.11.2017 23:27 6,4 C 85 % 1002,8 hPa 0,0 l/m 9,6 km/h (2 Bft) W-SW 257 0 min 0 W/m 4,1 C 3,9 C 20,9 km/h (4 Bft)
11.11.2017 23:30 6,5 C 85 % 1002,7 hPa 0,0 l/m 9,6 km/h (2 Bft) W 269 0 min 0 W/m 4,2 C 4,0 C 17,7 km/h (3 Bft)
11.11.2017 23:33 6,5 C 84 % 1002,7 hPa 0,0 l/m 8,4 km/h (2 Bft) W 280 0 min 0 W/m 4,0 C 4,9 C 19,3 km/h (3 Bft)
11.11.2017 23:36 6,5 C 84 % 1002,7 hPa 0,0 l/m 9,4 km/h (2 Bft) W-SW 254 0 min 0 W/m 4,0 C 4,1 C 16,1 km/h (3 Bft)
11.11.2017 23:39 6,6 C 84 % 1002,7 hPa 0,0 l/m 8,7 km/h (2 Bft) NW 313 0 min 0 W/m 4,1 C 4,8 C 19,3 km/h (3 Bft)
11.11.2017 23:42 6,6 C 84 % 1002,8 hPa 0,0 l/m 10,2 km/h (2 Bft) W-NW 288 0 min 0 W/m 4,1 C 3,7 C 24,1 km/h (4 Bft)
11.11.2017 23:45 6,7 C 84 % 1002,7 hPa 0,0 l/m 8,0 km/h (2 Bft) W-NW 301 0 min 0 W/m 4,2 C 5,4 C 17,7 km/h (3 Bft)
11.11.2017 23:48 6,8 C 84 % 1002,8 hPa 0,0 l/m 6,2 km/h (2 Bft) W 260 0 min 0 W/m 4,3 C 6,8 C 12,9 km/h (3 Bft)
11.11.2017 23:51 6,9 C 84 % 1002,8 hPa 0,0 l/m 6,2 km/h (2 Bft) W-SW 251 0 min 0 W/m 4,4 C 6,9 C 12,9 km/h (3 Bft)
11.11.2017 23:54 6,9 C 84 % 1002,8 hPa 0,0 l/m 6,5 km/h (2 Bft) W 263 0 min 0 W/m 4,4 C 6,8 C 11,3 km/h (2 Bft)
11.11.2017 23:57 6,9 C 84 % 1002,7 hPa 0,0 l/m 6,6 km/h (2 Bft) W-SW 255 0 min 0 W/m 4,4 C 6,8 C 16,1 km/h (3 Bft)
_ Min-Zeit 10:12 04:06 16:57 - 22:42 - - - - 21:06 06:06 22:51
Minimum _ 5,7 C 73 % 1001,0 hPa - 2,6 km/h (1 Bft) - - - - 3,2 C -1,9 C 6,4 km/h (2 Bft)
_ Max-Zeit 14:06 11:09 00:15 08:06 06:06 - - 09:09 12:18 11:48 14:00 04:39
Maximum _ 8,8 C 93 % 1005,1 hPa 0,4 l/m 23,5 km/h
W (4 Bft)
- - 3 min 380 W/m 6,0 C 8,2 C 45,1 km/h
W (6 Bft)
Durchschnitt _ 7,2 C 82 % 1002,7 hPa #3,2 l/m 12,5 km/h (2 Bft) W - #1:21 h 79 W/m 4,4 C 3,3 C 23,1 km/h (4 Bft)
2017 Cux-Wetter.de -Die Nutzung der Wetterdaten nur mit ausdrcklicher Genehmigung